Data Archive--March, 2006

Date Time Heat Index Current Temp Wind Chill High Temp Low Temp Humidity Dew Point Wind Speed Gust Wind Direction Rain Barometer
03/09/2006 9:20 a 46.0 46.0 46.0 46.2 45.7 69 36.4 0.0 3.0 NW 0.00 29.856
03/09/2006 9:30 a 46.3 46.3 46.3 46.3 46.2 69 36.7 1.0 3.0 NW 0.00 29.849
03/09/2006 9:40 a 46.5 46.5 46.5 46.7 46.3 69 36.9 0.0 4.0 NW 0.00 29.843
03/09/2006 9:50 a 46.9 46.9 46.9 47.1 46.7 68 36.9 0.0 3.0 NW 0.00 29.842
03/09/2006 10:00 a 47.2 47.2 47.2 47.3 47.1 69 37.6 0.0 2.0 NW 0.00 29.845
03/09/2006 10:10 a 47.4 47.4 47.4 47.5 47.2 68 37.4 0.0 2.0 NW 0.00 29.834
03/09/2006 10:20 a 47.6 47.6 47.6 47.8 47.5 69 37.9 0.0 2.0 NW 0.00 29.823
03/09/2006 10:30 a 47.9 47.9 47.9 48.1 47.7 68 37.9 1.0 4.0 NW 0.00 29.805
03/09/2006 10:40 a 48.3 48.3 48.3 48.5 48.1 68 38.2 1.0 5.0 NW 0.00 29.803
03/09/2006 10:50 a 48.7 48.7 48.7 48.8 48.5 67 38.2 1.0 5.0 NW 0.00 29.796
03/09/2006 11:00 a 48.8 48.8 48.8 48.9 48.8 67 38.3 1.0 3.0 NNW 0.00 29.806
03/09/2006 11:10 a 49.0 49.0 49.0 49.1 48.9 68 38.9 1.0 3.0 NNW 0.00 29.794
03/09/2006 11:20 a 49.3 49.3 49.3 49.5 49.1 68 39.2 0.0 3.0 NNW 0.00 29.799
03/09/2006 11:30 a 49.6 49.6 49.6 49.7 49.5 66 38.7 1.0 3.0 NW 0.00 29.801
03/09/2006 11:40 a 50.0 50.0 50.0 50.3 49.7 66 39.1 1.0 4.0 NW 0.00 29.800
03/09/2006 11:50 a 50.9 50.9 50.9 51.6 50.3 65 39.6 1.0 3.0 WNW 0.00 29.790
03/09/2006 12:00 p 52.0 52.0 52.0 52.4 51.6 63 39.8 1.0 3.0 WNW 0.00 29.795
03/09/2006 12:10 p 52.6 52.6 52.6 52.7 52.4 63 40.4 1.0 3.0 WNW 0.00 29.781
03/09/2006 12:20 p 53.0 53.0 53.0 53.2 52.7 61 39.9 1.0 3.0 WNW 0.00 29.771
03/09/2006 12:30 p 53.3 53.3 53.3 53.6 53.2 61 40.2 1.0 2.0 WNW 0.00 29.761
03/09/2006 12:40 p 53.8 53.8 53.8 53.9 53.6 61 40.7 1.0 2.0 WSW 0.00 29.756
03/09/2006 12:50 p 54.0 54.0 54.0 54.3 53.9 61 40.9 1.0 4.0 NW 0.00 29.733
03/09/2006 1:00 p 54.8 54.8 54.8 55.1 54.3 59 40.8 2.0 6.0 NW 0.00 29.722
03/09/2006 1:10 p 55.3 55.3 55.3 55.3 55.1 58 40.8 1.0 4.0 NW 0.00 29.710
03/09/2006 1:20 p 55.3 55.3 55.3 55.7 55.2 58 40.8 1.0 5.0 NW 0.00 29.711
03/09/2006 1:30 p 56.2 56.2 56.2 56.5 55.7 55 40.3 1.0 4.0 NNW 0.00 29.709
03/09/2006 1:40 p 56.4 56.4 56.4 56.5 56.2 56 40.9 1.0 3.0 NW 0.00 29.708
03/09/2006 1:50 p 56.6 56.6 56.6 56.9 56.4 55 40.6 1.0 3.0 N 0.00 29.702
03/09/2006 2:00 p 56.9 56.9 56.9 56.9 56.8 55 40.9 0.0 3.0 WNW 0.00 29.709
03/09/2006 2:10 p 57.0 57.0 57.0 57.2 56.9 54 40.5 0.0 3.0 NNW 0.00 29.703
03/09/2006 2:20 p 57.2 57.2 57.2 57.3 57.2 54 40.7 1.0 3.0 NNW 0.00 29.700
03/09/2006 2:30 p 57.3 57.3 57.3 57.3 57.2 55 41.3 0.0 1.0 NW 0.00 29.696
03/09/2006 2:40 p 57.3 57.3 57.3 57.4 57.3 54 40.8 1.0 4.0 NW 0.00 29.692
03/09/2006 2:50 p 57.4 57.4 57.4 57.6 57.3 54 40.9 1.0 3.0 NNW 0.00 29.689
03/09/2006 3:00 p 57.6 57.6 57.6 57.6 57.6 55 41.6 1.0 2.0 NNW 0.00 29.694
03/09/2006 3:10 p 57.7 57.7 57.7 58.0 57.6 53 40.7 0.0 3.0 NNW 0.00 29.686
03/09/2006 3:20 p 58.1 58.1 58.1 58.3 58.0 53 41.1 0.0 3.0 NW 0.00 29.691
03/09/2006 3:30 p 58.2 58.2 58.2 58.3 57.8 55 42.1 1.0 2.0 NW 0.00 29.695
03/09/2006 3:40 p 57.4 57.4 57.4 57.8 56.8 56 41.8 1.0 3.0 WSW 0.00 29.694
03/09/2006 3:50 p 56.4 56.4 56.4 56.8 56.1 58 41.8 1.0 2.0 WSW 0.00 29.691
03/09/2006 4:00 p 55.9 55.9 55.9 56.1 55.7 59 41.8 0.0 2.0 WSW 0.00 29.690
03/09/2006 4:10 p 55.5 55.5 55.5 55.7 55.3 60 41.9 0.0 2.0 WSW 0.00 29.690
03/09/2006 4:20 p 55.1 55.1 55.1 55.3 54.9 60 41.5 0.0 2.0 WSW 0.00 29.694
03/09/2006 4:30 p 54.7 54.7 54.7 54.9 54.5 61 41.5 0.0 2.0 WSW 0.00 29.691
03/09/2006 4:40 p 54.1 54.1 54.1 54.5 53.7 62 41.4 1.0 3.0 WSW 0.00 29.696
03/09/2006 4:50 p 53.3 53.3 53.3 53.7 53.1 63 41.0 0.0 2.0 W 0.00 29.692
03/09/2006 5:00 p 52.9 52.9 52.9 53.1 52.7 64 41.1 0.0 2.0 W 0.00 29.686
03/09/2006 5:10 p 52.6 52.6 52.6 52.7 52.4 65 41.2 0.0 2.0 W 0.00 29.678
03/09/2006 5:20 p 52.2 52.2 52.2 52.4 52.1 65 40.8 0.0 1.0 W 0.00 29.680
03/09/2006 5:30 p 51.9 51.9 51.9 52.1 51.7 66 40.9 0.0 1.0 --- 0.00 29.689
03/09/2006 5:40 p 51.5 51.5 51.5 51.7 51.3 66 40.5 0.0 0.0 --- 0.00 29.690
03/09/2006 5:50 p 51.1 51.1 51.1 51.3 50.8 67 40.5 0.0 0.0 --- 0.00 29.696
03/09/2006 6:00 p 50.7 50.7 50.7 50.8 50.5 68 40.5 0.0 0.0 --- 0.00 29.693
03/09/2006 6:10 p 50.3 50.3 50.3 50.5 50.1 69 40.5 0.0 0.0 --- 0.00 29.693
03/09/2006 6:20 p 50.1 50.1 50.1 50.2 50.0 70 40.7 0.0 0.0 --- 0.00 29.694
03/09/2006 6:30 p 49.8 49.8 49.8 50.0 49.6 70 40.4 0.0 0.0 --- 0.00 29.696
03/09/2006 6:40 p 49.4 49.4 49.4 49.6 49.3 71 40.4 0.0 0.0 --- 0.00 29.700
03/09/2006 6:50 p 49.2 49.2 49.2 49.3 49.1 71 40.2 0.0 0.0 --- 0.00 29.701
03/09/2006 7:00 p 49.0 49.0 49.0 49.1 48.8 72 40.4 0.0 0.0 --- 0.00 29.705
03/09/2006 7:10 p 48.6 48.6 48.6 48.8 48.5 73 40.3 0.0 0.0 --- 0.00 29.705
03/09/2006 7:20 p 48.5 48.5 48.5 48.5 48.3 73 40.3 0.0 0.0 --- 0.00 29.701
03/09/2006 7:30 p 48.1 48.1 48.1 48.4 47.9 73 39.9 0.0 0.0 --- 0.00 29.702
03/09/2006 7:40 p 47.7 47.7 47.7 47.9 47.6 75 40.2 0.0 0.0 --- 0.00 29.708
03/09/2006 7:50 p 47.6 47.6 47.6 47.7 47.6 75 40.1 0.0 0.0 --- 0.00 29.706
03/09/2006 8:00 p 47.4 47.4 47.4 47.6 47.3 75 39.9 0.0 0.0 --- 0.00 29.706
03/09/2006 8:10 p 47.3 47.3 47.3 47.3 47.3 75 39.8 0.0 0.0 --- 0.00 29.705
03/09/2006 8:20 p 47.2 47.2 47.2 47.3 47.0 76 40.0 0.0 0.0 --- 0.00 29.701
03/09/2006 8:30 p 46.9 46.9 46.9 47.0 46.9 77 40.1 0.0 0.0 --- 0.00 29.707
03/09/2006 8:40 p 47.0 47.0 47.0 47.1 47.0 76 39.8 0.0 0.0 --- 0.00 29.712
03/09/2006 8:50 p 47.0 47.0 47.0 47.1 46.9 76 39.8 0.0 0.0 --- 0.00 29.704
03/09/2006 9:00 p 46.8 46.8 46.8 47.0 46.7 77 40.0 0.0 0.0 --- 0.00 29.705
03/09/2006 9:10 p 46.6 46.6 46.6 46.7 46.5 77 39.8 0.0 0.0 --- 0.00 29.703
03/09/2006 9:20 p 46.5 46.5 46.5 46.6 46.4 77 39.7 0.0 0.0 --- 0.00 29.690
03/09/2006 9:30 p 46.5 46.5 46.5 46.6 46.4 78 40.0 0.0 0.0 --- 0.00 29.693
03/09/2006 9:40 p 46.5 46.5 46.5 46.6 46.5 78 40.0 0.0 0.0 --- 0.00 29.689
03/09/2006 9:50 p 46.5 46.5 46.5 46.5 46.4 78 40.0 0.0 0.0 --- 0.00 29.696
03/09/2006 10:00 p 46.4 46.4 46.4 46.5 46.4 78 39.9 0.0 0.0 --- 0.00 29.696
03/09/2006 10:10 p 46.3 46.3 46.3 46.4 46.2 79 40.2 0.0 0.0 --- 0.00 29.703
03/09/2006 10:20 p 46.2 46.2 46.2 46.3 46.1 78 39.7 0.0 0.0 --- 0.00 29.689
03/09/2006 10:30 p 46.0 46.0 46.0 46.1 45.9 79 39.9 0.0 0.0 --- 0.00 29.691
03/09/2006 10:40 p 45.8 45.8 45.8 45.9 45.7 80 40.0 0.0 0.0 --- 0.00 29.684
03/09/2006 10:50 p 45.7 45.7 45.7 45.8 45.6 80 39.9 0.0 0.0 --- 0.00 29.685
03/09/2006 11:00 p 45.6 45.6 45.6 45.7 45.6 80 39.8 0.0 0.0 --- 0.00 29.684
03/09/2006 11:10 p 45.6 45.6 45.6 45.7 45.4 80 39.8 0.0 0.0 --- 0.00 29.677
03/09/2006 11:20 p 45.3 45.3 45.3 45.4 45.2 81 39.8 0.0 0.0 --- 0.00 29.664
03/09/2006 11:30 p 45.0 45.0 45.0 45.2 44.8 81 39.5 0.0 0.0 --- 0.00 29.659
03/09/2006 11:40 p 44.7 44.7 44.7 44.8 44.6 81 39.2 0.0 0.0 --- 0.00 29.660
03/09/2006 11:50 p 44.4 44.4 44.4 44.6 44.2 81 38.9 0.0 0.0 --- 0.00 29.646
03/10/2006 12:00 a 44.0 44.0 44.0 44.2 43.9 82 38.9 0.0 0.0 --- 0.00 29.644
03/10/2006 12:10 a 43.9 43.9 43.9 43.9 43.8 83 39.1 0.0 0.0 --- 0.00 29.638
03/10/2006 12:20 a 43.9 43.9 43.9 43.9 43.8 82 38.8 0.0 0.0 --- 0.00 29.645
03/10/2006 12:30 a 43.6 43.6 43.6 43.8 43.5 83 38.8 0.0 0.0 --- 0.00 29.646
03/10/2006 12:40 a 43.4 43.4 43.4 43.5 43.2 84 38.9 0.0 0.0 --- 0.00 29.639
03/10/2006 12:50 a 43.2 43.2 43.2 43.3 43.1 85 39.0 0.0 0.0 --- 0.00 29.625
03/10/2006 1:00 a 43.3 43.3 43.3 43.4 43.1 86 39.4 0.0 0.0 --- 0.00 29.620
03/10/2006 1:10 a 43.5 43.5 43.5 43.6 43.4 85 39.3 0.0 0.0 --- 0.00 29.612
03/10/2006 1:20 a 43.7 43.7 43.7 43.8 43.5 85 39.5 0.0 0.0 --- 0.00 29.608
03/10/2006 1:30 a 43.8 43.8 43.8 43.8 43.7 84 39.3 0.0 0.0 --- 0.00 29.607
03/10/2006 1:40 a 43.4 43.4 43.4 43.7 43.1 84 38.9 0.0 0.0 --- 0.00 29.608
03/10/2006 1:50 a 42.9 42.9 42.9 43.1 42.7 85 38.7 0.0 0.0 --- 0.00 29.597
03/10/2006 2:00 a 42.6 42.6 42.6 42.7 42.6 86 38.7 0.0 0.0 --- 0.00 29.603
03/10/2006 2:10 a 42.6 42.6 42.6 42.7 42.5 87 39.0 0.0 0.0 --- 0.00 29.596
03/10/2006 2:20 a 42.8 42.8 42.8 42.9 42.7 87 39.2 0.0 0.0 --- 0.00 29.596
03/10/2006 2:30 a 43.1 43.1 43.1 43.2 42.9 86 39.2 0.0 0.0 --- 0.00 29.589
03/10/2006 2:40 a 43.1 43.1 43.1 43.2 42.9 85 38.9 0.0 0.0 --- 0.00 29.582
03/10/2006 2:50 a 42.8 42.8 42.8 42.9 42.6 87 39.2 0.0 0.0 --- 0.00 29.573
03/10/2006 3:00 a 42.5 42.5 42.5 42.7 42.5 87 38.9 0.0 0.0 --- 0.00 29.565
03/10/2006 3:10 a 42.6 42.6 42.6 42.6 42.5 87 39.0 0.0 0.0 --- 0.00 29.560
03/10/2006 3:20 a 42.6 42.6 42.6 42.6 42.5 87 39.0 0.0 0.0 --- 0.00 29.572
03/10/2006 3:30 a 42.6 42.6 42.6 42.7 42.5 87 39.0 0.0 2.0 W 0.00 29.574
03/10/2006 3:40 a 42.7 42.7 42.7 42.7 42.5 87 39.1 0.0 0.0 --- 0.00 29.584
03/10/2006 3:50 a 42.4 42.4 42.4 42.6 42.1 87 38.8 0.0 0.0 --- 0.00 29.572
03/10/2006 4:00 a 41.9 41.9 41.9 42.1 41.7 88 38.6 0.0 0.0 --- 0.00 29.554
03/10/2006 4:10 a 41.9 41.9 41.9 42.1 41.8 89 38.9 0.0 2.0 W 0.00 29.565
03/10/2006 4:20 a 42.3 42.3 42.3 42.4 42.1 88 39.0 0.0 0.0 --- 0.00 29.560
03/10/2006 4:30 a 42.4 42.4 42.4 42.4 42.3 88 39.1 0.0 0.0 --- 0.00 29.554
03/10/2006 4:40 a 42.6 42.6 42.6 42.9 42.4 88 39.3 0.0 1.0 W 0.00 29.554
03/10/2006 4:50 a 42.9 42.9 42.9 43.0 42.8 87 39.3 0.0 1.0 W 0.00 29.558
03/10/2006 5:00 a 43.0 43.0 43.0 43.5 42.9 92 40.8 0.0 0.0 --- 0.00 29.553
03/10/2006 5:10 a 44.5 44.5 44.5 45.8 43.5 96 43.4 0.0 1.0 --- 0.00 29.553
03/10/2006 5:20 a 47.6 47.6 47.6 48.9 45.8 97 46.8 0.0 2.0 NW 0.00 29.564
03/10/2006 5:30 a 50.0 50.0 50.0 50.9 49.0 96 48.9 0.0 2.0 NW 0.00 29.563
03/10/2006 5:40 a 51.6 51.6 51.6 52.2 50.9 92 49.4 0.0 3.0 NW 0.00 29.556
03/10/2006 5:50 a 52.6 52.6 52.6 52.8 52.2 90 49.8 0.0 2.0 NW 0.00 29.554
03/10/2006 6:00 a 52.9 52.9 52.9 53.0 52.8 89 49.8 0.0 2.0 NW 0.00 29.544
03/10/2006 6:10 a 53.0 53.0 53.0 53.0 52.9 89 49.9 0.0 3.0 NNW 0.00 29.536
03/10/2006 6:20 a 52.9 52.9 52.9 53.0 52.8 89 49.8 0.0 0.0 --- 0.00 29.534
03/10/2006 6:30 a 52.8 52.8 52.8 52.8 52.7 90 50.0 0.0 2.0 NNW 0.00 29.518
03/10/2006 6:40 a 52.9 52.9 52.9 53.1 52.8 90 50.1 0.0 3.0 NNW 0.00 29.530
03/10/2006 6:50 a 53.3 53.3 53.3 53.6 53.1 90 50.4 0.0 2.0 NW 0.00 29.528
03/10/2006 7:00 a 53.8 53.8 53.8 54.0 53.6 89 50.6 0.0 3.0 NW 0.00 29.532
03/10/2006 7:10 a 54.2 54.2 54.2 54.4 54.0 89 51.0 0.0 2.0 NW 0.00 29.530
03/10/2006 7:20 a 54.7 54.7 54.7 55.2 54.5 88 51.2 0.0 3.0 NW 0.00 29.523
03/10/2006 7:30 a 55.8 55.8 55.8 56.5 55.2 87 52.0 0.0 2.0 NW 0.00 29.522
03/10/2006 7:40 a 57.3 57.3 57.3 57.9 56.6 83 52.2 0.0 3.0 N 0.00 29.519
03/10/2006 7:50 a 58.4 58.4 58.4 59.0 57.9 82 52.9 0.0 2.0 NNW 0.00 29.523
03/10/2006 8:00 a 59.4 59.4 59.4 59.8 59.0 80 53.2 1.0 3.0 NW 0.00 29.527
03/10/2006 8:10 a 60.2 60.2 60.2 61.0 59.8 78 53.3 1.0 7.0 WNW 0.00 29.524
03/10/2006 8:20 a 61.9 61.9 61.9 62.7 61.0 74 53.5 1.0 4.0 WNW 0.00 29.513
03/10/2006 8:30 a 63.5 63.5 63.5 64.2 62.8 71 53.9 1.0 5.0 SE 0.00 29.520
03/10/2006 8:40 a 64.5 64.5 64.5 64.7 64.2 69 54.1 2.0 6.0 SE 0.00 29.517
03/10/2006 8:50 a 64.9 64.9 64.9 65.1 64.7 68 54.1 1.0 6.0 SSE 0.00 29.518
03/10/2006 9:00 a 65.4 65.4 65.4 65.7 65.1 67 54.2 2.0 6.0 SE 0.00 29.518
03/10/2006 9:10 a 65.9 65.9 65.9 66.2 65.7 65 53.8 2.0 5.0 SW 0.00 29.515
03/10/2006 9:20 a 66.5 66.5 66.5 66.8 66.2 64 54.0 2.0 10.0 E 0.00 29.515
03/10/2006 9:30 a 67.1 67.1 67.1 67.4 66.8 63 54.1 2.0 6.0 NW 0.00 29.511
03/10/2006 9:40 a 67.5 67.5 67.5 67.5 67.4 62 54.0 2.0 9.0 W 0.00 29.515
03/10/2006 9:50 a 67.6 67.6 67.6 68.1 67.4 61 53.7 2.0 6.0 ESE 0.00 29.506
03/10/2006 10:00 a 67.8 68.3 68.3 68.4 68.1 59 53.4 2.0 7.0 SE 0.00 29.505
03/10/2006 10:10 a 67.8 68.3 68.3 68.4 68.1 59 53.4 2.0 8.0 SW 0.00 29.503
03/10/2006 10:20 a 68.4 68.8 68.8 69.3 68.3 57 53.0 2.0 5.0 SW 0.00 29.499
03/10/2006 10:30 a 69.0 69.7 69.7 69.9 69.3 55 52.8 2.0 6.0 ESE 0.00 29.496
03/10/2006 10:40 a 68.4 69.8 69.8 69.9 69.8 52 51.4 2.0 8.0 SE 0.00 29.500
03/10/2006 10:50 a 68.4 70.4 70.4 70.8 69.9 52 52.0 2.0 7.0 WSW 0.00 29.494
03/10/2006 11:00 a 69.2 70.8 70.8 70.9 70.8 51 51.8 2.0 5.0 SW 0.00 29.498
03/10/2006 11:10 a 69.2 71.1 71.1 71.3 70.9 51 52.1 2.0 6.0 S 0.00 29.496
03/10/2006 11:20 a 69.4 71.2 71.2 71.4 71.1 52 52.7 1.0 5.0 NW 0.00 29.496
03/10/2006 11:30 a 70.8 71.5 71.5 71.8 71.2 48 50.8 2.0 6.0 S 0.00 29.493
03/10/2006 11:40 a 69.0 71.1 71.1 71.7 70.6 50 51.5 2.0 5.0 WSW 0.00 29.494
03/10/2006 11:50 a 69.0 71.2 71.2 72.3 70.5 47 50.0 1.0 5.0 S 0.00 29.488
03/10/2006 12:00 p 71.8 72.9 72.9 73.1 72.3 44 49.7 2.0 7.0 ESE 0.00 29.491
03/10/2006 12:10 p 71.8 72.5 72.5 72.8 72.1 44 49.4 2.0 8.0 SE 0.00 29.490
03/10/2006 12:20 p 70.3 72.3 72.3 72.5 72.1 43 48.6 3.0 9.0 ESE 0.00 29.488
03/10/2006 12:30 p 71.6 72.6 72.6 72.7 72.3 43 48.8 2.0 7.0 ESE 0.00 29.484
03/10/2006 12:40 p 70.3 72.4 72.4 73.0 72.1 43 48.7 2.0 7.0 ESE 0.00 29.486
03/10/2006 12:50 p 71.4 72.9 72.9 73.1 72.7 42 48.5 2.0 5.0 ESE 0.00 29.487
03/10/2006 1:00 p 71.6 72.5 72.5 72.7 72.4 43 48.8 2.0 7.0 SE 0.00 29.491
03/10/2006 1:10 p 71.2 73.0 73.0 73.3 72.5 41 47.9 3.0 7.0 E 0.00 29.497
03/10/2006 1:20 p 71.6 72.7 72.7 73.1 72.4 43 48.9 1.0 6.0 ESE 0.00 29.493
03/10/2006 1:30 p 71.6 72.5 72.5 72.8 72.3 43 48.8 1.0 7.0 SE 0.00 29.493
03/10/2006 1:40 p 71.2 72.7 72.7 72.8 72.6 41 47.7 2.0 8.0 SE 0.00 29.501
03/10/2006 1:50 p 71.0 73.0 73.0 73.2 72.7 38 45.9 2.0 8.0 E 0.00 29.495
03/10/2006 2:00 p 71.0 73.3 73.3 73.4 73.2 36 44.8 2.0 7.0 ESE 0.00 29.496
03/10/2006 2:10 p 72.0 73.5 73.5 73.7 73.3 36 44.9 2.0 7.0 SE 0.00 29.506
03/10/2006 2:20 p 72.0 73.8 73.8 74.0 73.7 35 44.5 2.0 6.0 ESE 0.00 29.514
03/10/2006 2:30 p 72.0 74.2 74.2 74.3 74.0 36 45.6 2.0 9.0 ESE 0.00 29.521
03/10/2006 2:40 p 73.0 74.5 74.5 74.7 74.2 35 45.1 2.0 7.0 ENE 0.00 29.525
03/10/2006 2:50 p 72.0 74.0 74.0 74.2 73.9 35 44.6 2.0 6.0 ENE 0.00 29.532
03/10/2006 3:00 p 72.0 73.5 73.5 73.9 73.2 36 44.9 1.0 4.0 SSW 0.00 29.539
03/10/2006 3:10 p 71.0 73.1 73.1 73.2 72.9 35 43.8 2.0 6.0 ESE 0.00 29.544
03/10/2006 3:20 p 71.0 72.8 72.8 72.9 72.7 36 44.3 2.0 5.0 SE 0.00 29.548
03/10/2006 3:30 p 71.0 72.7 72.7 72.7 72.5 35 43.5 1.0 5.0 SE 0.00 29.559
03/10/2006 3:40 p 69.5 72.4 72.4 72.5 72.2 35 43.2 2.0 6.0 E 0.00 29.563
03/10/2006 3:50 p 69.5 72.2 72.2 72.3 72.2 35 43.1 1.0 4.0 SE 0.00 29.564
03/10/2006 4:00 p 71.0 72.5 72.5 72.7 72.3 33 41.8 2.0 9.0 ESE 0.00 29.569
03/10/2006 4:10 p 71.0 72.6 72.6 72.7 72.5 32 41.1 3.0 11.0 ESE 0.00 29.573
03/10/2006 4:20 p 69.3 72.3 72.3 72.5 72.0 33 41.6 3.0 9.0 E 0.00 29.585
03/10/2006 4:30 p 69.4 71.7 71.7 72.1 71.3 34 41.9 4.0 12.0 E 0.00 29.598
03/10/2006 4:40 p 68.0 71.0 71.0 71.3 70.6 35 42.0 4.0 14.0 E 0.00 29.604
03/10/2006 4:50 p 67.4 70.3 70.3 70.6 70.0 37 42.8 3.0 11.0 E 0.00 29.617
03/10/2006 5:00 p 67.6 69.6 69.6 70.0 69.3 38 42.9 3.0 9.0 E 0.00 29.633
03/10/2006 5:10 p 66.6 68.9 68.9 69.3 68.5 38 42.3 4.0 13.0 E 0.00 29.644
03/10/2006 5:20 p 65.8 68.2 66.9 68.5 67.9 39 42.3 5.0 14.0 E 0.00 29.650
03/10/2006 5:30 p 67.5 67.5 67.5 67.9 67.1 39 41.7 3.0 9.0 E 0.00 29.663
03/10/2006 5:40 p 66.8 66.8 66.8 67.1 66.4 41 42.4 3.0 10.0 E 0.00 29.672
03/10/2006 5:50 p 66.1 66.1 66.1 66.4 65.9 41 41.7 3.0 12.0 E 0.00 29.683
03/10/2006 6:00 p 65.8 65.8 65.8 65.9 65.6 42 42.1 3.0 8.0 E 0.00 29.692
03/10/2006 6:10 p 65.4 65.4 65.4 65.6 65.1 43 42.3 2.0 7.0 E 0.00 29.699
03/10/2006 6:20 p 64.9 64.9 64.9 65.1 64.6 44 42.5 2.0 9.0 E 0.00 29.700
03/10/2006 6:30 p 64.5 64.5 64.5 64.6 64.3 44 42.1 3.0 9.0 E 0.00 29.702
03/10/2006 6:40 p 64.3 64.3 64.3 64.4 64.2 43 41.3 3.0 13.0 E 0.00 29.713
03/10/2006 6:50 p 64.3 64.3 64.3 64.3 64.2 43 41.3 4.0 12.0 ESE 0.00 29.728
03/10/2006 7:00 p 64.0 64.0 64.0 64.2 63.8 44 41.7 3.0 13.0 E 0.00 29.741
03/10/2006 7:10 p 63.7 63.7 63.7 63.8 63.7 45 42.0 3.0 10.0 E 0.00 29.745
03/10/2006 7:20 p 63.5 63.5 63.5 63.7 63.3 45 41.8 3.0 8.0 E 0.00 29.757
03/10/2006 7:30 p 63.2 63.2 63.2 63.3 63.1 45 41.5 3.0 12.0 E 0.00 29.761
03/10/2006 7:40 p 63.1 63.1 63.1 63.2 63.1 45 41.4 4.0 14.0 E 0.00 29.768
03/10/2006 7:50 p 62.8 62.8 62.8 63.1 62.5 46 41.7 2.0 8.0 E 0.00 29.771
03/10/2006 8:00 p 62.3 62.3 62.3 62.5 62.0 47 41.8 2.0 11.0 E 0.00 29.776
03/10/2006 8:10 p 62.0 62.0 62.0 62.1 61.9 47 41.6 3.0 13.0 E 0.00 29.780
03/10/2006 8:20 p 61.8 61.8 61.8 61.9 61.7 47 41.4 2.0 11.0 E 0.00 29.787
03/10/2006 8:30 p 61.5 61.5 61.5 61.7 61.2 49 42.2 1.0 7.0 E 0.00 29.800
03/10/2006 8:40 p 61.0 61.0 61.0 61.3 60.8 50 42.2 1.0 5.0 E 0.00 29.806
03/10/2006 8:50 p 60.6 60.6 60.6 60.8 60.4 50 41.9 1.0 5.0 E 0.00 29.812
03/10/2006 9:00 p 60.3 60.3 60.3 60.4 60.3 51 42.1 1.0 5.0 E 0.00 29.819
03/10/2006 9:10 p 60.1 60.1 60.1 60.3 59.9 51 41.9 1.0 4.0 E 0.00 29.826
03/10/2006 9:20 p 59.8 59.8 59.8 60.0 59.7 51 41.7 1.0 4.0 E 0.00 29.817
03/10/2006 9:30 p 59.8 59.8 59.8 59.9 59.7 51 41.7 2.0 7.0 E 0.00 29.817
03/10/2006 9:40 p 59.9 59.9 59.9 59.9 59.8 51 41.7 3.0 11.0 E 0.00 29.814
03/10/2006 9:50 p 59.9 59.9 59.9 59.9 59.8 52 42.2 3.0 9.0 E 0.00 29.817
03/10/2006 10:00 p 59.8 59.8 59.8 59.9 59.6 52 42.2 2.0 11.0 E 0.00 29.825
03/10/2006 10:10 p 59.4 59.4 59.4 59.7 59.2 53 42.3 2.0 6.0 E 0.00 29.834
03/10/2006 10:20 p 59.2 59.2 59.2 59.3 59.1 53 42.1 3.0 10.0 ESE 0.00 29.841
03/10/2006 10:30 p 59.1 59.1 59.1 59.2 59.0 53 42.0 4.0 11.0 E 0.00 29.841
03/10/2006 10:40 p 58.9 58.9 58.9 59.0 58.7 54 42.3 2.0 7.0 ESE 0.00 29.850
03/10/2006 10:50 p 58.5 58.5 58.5 58.7 58.3 55 42.4 2.0 9.0 ESE 0.00 29.861
03/10/2006 11:00 p 58.3 58.3 58.3 58.4 58.3 55 42.2 2.0 11.0 E 0.00 29.863
03/10/2006 11:10 p 58.2 58.2 58.2 58.3 58.1 55 42.1 3.0 7.0 E 0.00 29.860
03/10/2006 11:20 p 58.0 58.0 58.0 58.1 57.9 55 41.9 3.0 9.0 ESE 0.00 29.858
03/10/2006 11:30 p 57.8 57.8 57.8 57.9 57.6 56 42.2 3.0 8.0 E 0.00 29.866
03/10/2006 11:40 p 57.4 57.4 57.4 57.6 57.2 57 42.3 2.0 7.0 E 0.00 29.862
03/10/2006 11:50 p 57.0 57.0 57.0 57.2 56.8 58 42.4 2.0 7.0 E 0.00 29.867
03/11/2006 12:00 a 56.6 56.6 56.6 56.8 56.5 58 42.0 2.0 6.0 E 0.00 29.874
03/11/2006 12:10 a 56.3 56.3 56.3 56.5 56.2 58 41.7 2.0 5.0 E 0.00 29.883
03/11/2006 12:20 a 56.1 56.1 56.1 56.2 56.1 58 41.5 2.0 8.0 E 0.00 29.888
03/11/2006 12:30 a 56.0 56.0 56.0 56.1 55.9 58 41.4 1.0 6.0 SSE 0.00 29.890
03/11/2006 12:40 a 55.6 55.6 55.6 55.9 55.4 59 41.5 0.0 0.0 --- 0.00 29.899
03/11/2006 12:50 a 55.0 55.0 55.0 55.4 54.7 60 41.4 0.0 0.0 --- 0.00 29.909
03/11/2006 1:00 a 54.3 54.3 54.3 54.6 53.8 61 41.2 0.0 0.0 --- 0.00 29.920
03/11/2006 1:10 a 53.2 53.2 53.2 53.8 52.6 64 41.4 0.0 0.0 --- 0.00 29.923
03/11/2006 1:20 a 52.5 52.5 52.5 52.7 52.4 64 40.7 0.0 1.0 SSE 0.00 29.922
03/11/2006 1:30 a 52.9 52.9 52.9 53.0 52.7 63 40.7 0.0 4.0 SSE 0.00 29.913
03/11/2006 1:40 a 53.1 53.1 53.1 53.3 53.0 62 40.4 2.0 8.0 SE 0.00 29.920
03/11/2006 1:50 a 53.3 53.3 53.3 53.4 53.2 61 40.2 2.0 6.0 SE 0.00 29.920
03/11/2006 2:00 a 53.2 53.2 53.2 53.3 53.2 61 40.1 2.0 7.0 ESE 0.00 29.927
03/11/2006 2:10 a 53.1 53.1 53.1 53.2 53.0 61 40.0 2.0 8.0 S 0.00 29.925
03/11/2006 2:20 a 52.8 52.8 52.8 53.0 52.7 62 40.2 2.0 5.0 SE 0.00 29.933
03/11/2006 2:30 a 52.6 52.6 52.6 52.7 52.5 62 40.0 1.0 5.0 SE 0.00 29.931
03/11/2006 2:40 a 52.3 52.3 52.3 52.5 52.1 62 39.7 2.0 7.0 E 0.00 29.939
03/11/2006 2:50 a 52.0 52.0 52.0 52.1 51.9 62 39.4 2.0 6.0 SE 0.00 29.938
03/11/2006 3:00 a 52.0 52.0 52.0 52.0 51.8 62 39.4 2.0 5.0 ESE 0.00 29.953
03/11/2006 3:10 a 51.6 51.6 51.6 51.9 51.5 62 39.0 2.0 7.0 ESE 0.00 29.964
03/11/2006 3:20 a 51.4 51.4 51.4 51.5 51.1 63 39.2 0.0 3.0 ESE 0.00 29.971
03/11/2006 3:30 a 50.9 50.9 50.9 51.1 50.8 63 38.8 1.0 6.0 ESE 0.00 29.971
03/11/2006 3:40 a 50.8 50.8 50.8 50.9 50.6 63 38.7 1.0 3.0 ESE 0.00 29.972
03/11/2006 3:50 a 50.5 50.5 50.5 50.6 50.4 63 38.4 1.0 5.0 SSE 0.00 29.976
03/11/2006 4:00 a 50.3 50.3 50.3 50.4 50.1 64 38.6 1.0 4.0 ESE 0.00 29.987
03/11/2006 4:10 a 50.1 50.1 50.1 50.2 50.1 64 38.4 1.0 4.0 E 0.00 29.990
03/11/2006 4:20 a 50.1 50.1 50.1 50.2 50.0 64 38.4 1.0 6.0 ESE 0.00 30.001
03/11/2006 4:30 a 50.0 50.0 50.0 50.0 49.8 64 38.3 1.0 3.0 ESE 0.00 30.010
03/11/2006 4:40 a 49.5 49.5 49.5 49.8 49.1 65 38.2 0.0 2.0 ESE 0.00 30.021
03/11/2006 4:50 a 48.8 48.8 48.8 49.1 48.6 66 38.0 0.0 0.0 --- 0.00 30.030
03/11/2006 5:00 a 48.4 48.4 48.4 48.6 48.2 67 38.0 0.0 1.0 ESE 0.00 30.040
03/11/2006 5:10 a 47.7 47.7 47.7 48.2 47.3 68 37.7 0.0 2.0 ESE 0.00 30.043
03/11/2006 5:20 a 46.9 46.9 46.9 47.3 46.3 69 37.3 0.0 0.0 --- 0.00 30.059
03/11/2006 5:30 a 45.4 45.4 45.4 46.3 44.7 72 36.9 0.0 0.0 --- 0.00 30.068
03/11/2006 5:40 a 44.3 44.3 44.3 44.7 43.8 74 36.5 0.0 0.0 --- 0.00 30.072
03/11/2006 5:50 a 43.5 43.5 43.5 43.8 43.3 75 36.1 0.0 3.0 ESE 0.00 30.080
03/11/2006 6:00 a 44.3 44.3 44.3 45.3 43.5 71 35.5 0.0 5.0 SSE 0.00 30.084
03/11/2006 6:10 a 45.8 45.8 45.8 46.2 45.3 68 35.9 1.0 4.0 SE 0.00 30.086
03/11/2006 6:20 a 46.6 46.6 46.6 46.9 46.2 67 36.2 1.0 5.0 E 0.00 30.096
03/11/2006 6:30 a 46.9 46.9 46.9 47.1 46.9 66 36.2 1.0 6.0 E 0.00 30.098
03/11/2006 6:40 a 47.4 47.4 47.4 47.6 47.1 64 35.8 2.0 7.0 E 0.00 30.104
03/11/2006 6:50 a 47.9 47.9 47.9 48.1 47.6 63 35.9 2.0 6.0 E 0.00 30.113
03/11/2006 7:00 a 48.4 48.4 48.4 48.6 48.1 61 35.6 2.0 5.0 E 0.00 30.116
03/11/2006 7:10 a 48.9 48.9 48.9 49.2 48.6 60 35.6 2.0 7.0 ESE 0.00 30.121
03/11/2006 7:20 a 49.4 49.4 49.4 49.7 49.2 59 35.7 2.0 7.0 ESE 0.00 30.127
03/11/2006 7:30 a 49.9 49.9 49.9 50.1 49.7 58 35.7 1.0 6.0 E 0.00 30.133
03/11/2006 7:40 a 50.2 50.2 50.2 50.3 50.1 57 35.6 2.0 5.0 E 0.00 30.141
03/11/2006 7:50 a 50.4 50.4 50.4 50.6 50.3 55 34.9 2.0 5.0 S 0.00 30.138
03/11/2006 8:00 a 50.7 50.7 50.7 50.8 50.6 54 34.7 2.0 10.0 SSE 0.00 30.135
03/11/2006 8:10 a 50.8 50.8 50.8 50.8 50.7 52 33.8 3.0 6.0 SSE 0.00 30.140
03/11/2006 8:20 a 50.8 50.8 50.8 50.9 50.7 52 33.8 3.0 9.0 ESE 0.00 30.140
03/11/2006 8:30 a 51.1 51.1 51.1 51.3 51.0 52 34.1 3.0 10.0 SSE 0.00 30.141
03/11/2006 8:40 a 51.4 51.4 51.4 51.7 51.3 53 34.9 2.0 7.0 ESE 0.00 30.139
03/11/2006 8:50 a 52.3 52.3 52.3 52.6 51.7 50 34.2 2.0 5.0 E 0.00 30.137
03/11/2006 9:00 a 52.6 52.6 52.6 52.8 52.5 49 34.0 2.0 6.0 E 0.00 30.138
03/11/2006 9:10 a 52.9 52.9 52.9 53.0 52.8 48 33.8 3.0 10.0 SSE 0.00 30.141
03/11/2006 9:20 a 53.3 53.3 53.3 53.5 53.0 47 33.6 3.0 8.0 SSE 0.00 30.136
03/11/2006 9:30 a 53.6 53.6 53.6 53.7 53.5 46 33.3 2.0 7.0 ESE 0.00 30.134
03/11/2006 9:40 a 53.8 53.8 53.8 53.9 53.7 46 33.5 3.0 7.0 SSE 0.00 30.128
03/11/2006 9:50 a 53.9 53.9 53.9 54.3 53.8 46 33.6 2.0 7.0 SE 0.00 30.124
03/11/2006 10:00 a 54.4 54.4 54.4 54.5 54.3 45 33.5 2.0 8.0 ESE 0.00 30.131
03/11/2006 10:10 a 54.8 54.8 54.8 55.1 54.5 44 33.3 2.0 8.0 E 0.00 30.122
03/11/2006 10:20 a 55.2 55.2 55.2 55.4 55.1 44 33.7 2.0 7.0 E 0.00 30.122
03/11/2006 10:30 a 55.6 55.6 55.6 55.9 55.4 41 32.3 2.0 6.0 SSE 0.00 30.128
03/11/2006 10:40 a 56.2 56.2 56.2 56.5 55.9 41 32.8 1.0 3.0 SSE 0.00 30.117
03/11/2006 10:50 a 56.7 56.7 56.7 56.8 56.5 40 32.7 2.0 6.0 ESE 0.00 30.120
03/11/2006 11:00 a 57.0 57.0 57.0 57.4 56.7 39 32.3 2.0 6.0 E 0.00 30.123
03/11/2006 11:10 a 57.7 57.7 57.7 57.8 57.4 37 31.6 1.0 6.0 SSE 0.00 30.125
03/11/2006 11:20 a 58.1 58.1 58.1 58.5 57.8 36 31.3 1.0 5.0 E 0.00 30.129
03/11/2006 11:30 a 58.9 58.9 58.9 59.2 58.5 36 32.0 2.0 8.0 E 0.00 30.116
03/11/2006 11:40 a 59.4 59.4 59.4 59.6 59.2 35 31.8 2.0 8.0 ESE 0.00 30.116
03/11/2006 11:50 a 59.7 59.7 59.7 59.9 59.6 36 32.7 1.0 5.0 SE 0.00 30.114
03/11/2006 12:00 p 60.3 60.3 60.3 60.6 59.9 33 31.1 2.0 5.0 ESE 0.00 30.105
03/11/2006 12:10 p 60.5 60.5 60.5 60.6 60.4 33 31.3 1.0 5.0 SSW 0.00 30.102
03/11/2006 12:20 p 60.3 60.3 60.3 60.4 60.2 33 31.1 1.0 5.0 ESE 0.00 30.105
03/11/2006 12:30 p 60.5 60.5 60.5 61.0 60.1 33 31.3 2.0 6.0 E 0.00 30.105
03/11/2006 12:40 p 61.0 61.0 61.0 61.2 60.9 33 31.7 1.0 6.0 E 0.00 30.103
03/11/2006 12:50 p 61.3 61.3 61.3 61.7 61.1 33 32.0 1.0 5.0 E 0.00 30.099
03/11/2006 1:00 p 61.8 61.8 61.8 61.9 61.7 31 30.9 1.0 4.0 E 0.00 30.094
03/11/2006 1:10 p 62.0 62.0 62.0 62.3 61.8 30 30.2 2.0 5.0 ESE 0.00 30.089
03/11/2006 1:20 p 62.3 62.3 62.3 62.4 62.3 31 31.3 1.0 4.0 ESE 0.00 30.085
03/11/2006 1:30 p 62.7 62.7 62.7 62.8 62.4 27 28.3 2.0 10.0 E 0.00 30.085
03/11/2006 1:40 p 62.8 62.8 62.8 62.8 62.7 27 28.3 2.0 8.0 E 0.00 30.078
03/11/2006 1:50 p 62.9 62.9 62.9 63.1 62.7 27 28.4 2.0 6.0 E 0.00 30.073
03/11/2006 2:00 p 63.2 63.2 63.2 63.4 63.1 27 28.7 2.0 8.0 E 0.00 30.079
03/11/2006 2:10 p 63.5 63.5 63.5 63.6 63.4 27 28.9 2.0 6.0 E 0.00 30.077
03/11/2006 2:20 p 63.3 63.3 63.3 63.4 63.2 27 28.8 1.0 3.0 SE 0.00 30.081
03/11/2006 2:30 p 63.4 63.4 63.4 63.5 63.3 27 28.9 0.0 4.0 SE 0.00 30.087
03/11/2006 2:40 p 63.7 63.7 63.7 64.0 63.5 27 29.1 1.0 3.0 E 0.00 30.087
03/11/2006 2:50 p 64.0 64.0 64.0 64.0 63.9 27 29.4 0.0 4.0 E 0.00 30.092
03/11/2006 3:00 p 63.8 63.8 63.8 64.0 63.6 27 29.2 1.0 7.0 SE 0.00 30.096
03/11/2006 3:10 p 63.7 63.7 63.7 63.9 63.6 27 29.1 1.0 5.0 E 0.00 30.104
03/11/2006 3:20 p 63.6 63.6 63.6 63.6 63.5 29 30.8 1.0 5.0 E 0.00 30.110
03/11/2006 3:30 p 63.4 63.4 63.4 63.5 63.4 30 31.5 1.0 4.0 E 0.00 30.116
03/11/2006 3:40 p 63.4 63.4 63.4 63.4 63.2 28 29.8 0.0 3.0 ESE 0.00 30.114
03/11/2006 3:50 p 62.9 62.9 62.9 63.2 62.6 29 30.2 1.0 3.0 NW 0.00 30.108
03/11/2006 4:00 p 62.5 62.5 62.5 62.6 62.4 30 30.7 0.0 2.0 NW 0.00 30.111
03/11/2006 4:10 p 62.4 62.4 62.4 62.5 62.4 31 31.4 0.0 1.0 N 0.00 30.120
03/11/2006 4:20 p 62.5 62.5 62.5 62.6 62.4 31 31.5 0.0 2.0 N 0.00 30.119
03/11/2006 4:30 p 62.3 62.3 62.3 62.5 62.1 33 32.9 0.0 1.0 NW 0.00 30.121
03/11/2006 4:40 p 61.9 61.9 61.9 62.1 61.7 33 32.5 0.0 1.0 --- 0.00 30.116
03/11/2006 4:50 p 61.5 61.5 61.5 61.7 61.4 33 32.2 0.0 1.0 NW 0.00 30.127
03/11/2006 5:00 p 61.3 61.3 61.3 61.4 61.2 33 32.0 0.0 1.0 NW 0.00 30.125
03/11/2006 5:10 p 61.1 61.1 61.1 61.2 61.0 33 31.8 0.0 0.0 --- 0.00 30.126
03/11/2006 5:20 p 60.8 60.8 60.8 61.0 60.7 33 31.5 0.0 0.0 --- 0.00 30.130
03/11/2006 5:30 p 60.5 60.5 60.5 60.7 60.3 33 31.3 0.0 0.0 --- 0.00 30.126
03/11/2006 5:40 p 60.1 60.1 60.1 60.3 59.8 35 32.4 0.0 0.0 --- 0.00 30.130
03/11/2006 5:50 p 59.6 59.6 59.6 59.8 59.4 36 32.6 0.0 0.0 --- 0.00 30.133
03/11/2006 6:00 p 59.1 59.1 59.1 59.4 58.9 36 32.2 0.0 0.0 --- 0.00 30.137
03/11/2006 6:10 p 58.7 58.7 58.7 58.9 58.4 37 32.5 0.0 0.0 --- 0.00 30.140
03/11/2006 6:20 p 58.3 58.3 58.3 58.5 58.1 38 32.8 0.0 0.0 --- 0.00 30.144
03/11/2006 6:30 p 57.9 57.9 57.9 58.0 57.6 40 33.7 0.0 0.0 --- 0.00 30.139
03/11/2006 6:40 p 57.5 57.5 57.5 57.6 57.3 40 33.4 0.0 0.0 --- 0.00 30.137
03/11/2006 6:50 p 57.1 57.1 57.1 57.3 57.0 40 33.0 0.0 0.0 --- 0.00 30.138
03/11/2006 7:00 p 56.9 56.9 56.9 57.0 56.9 45 35.8 0.0 0.0 --- 0.00 30.145
03/11/2006 7:10 p 56.9 56.9 56.9 56.9 56.8 42 34.1 0.0 0.0 --- 0.00 30.149
03/11/2006 7:20 p 56.8 56.8 56.8 56.9 56.6 46 36.3 0.0 2.0 NW 0.00 30.149
03/11/2006 7:30 p 56.6 56.6 56.6 56.6 56.5 47 36.6 0.0 2.0 NW 0.00 30.150
03/11/2006 7:40 p 56.4 56.4 56.4 56.5 56.3 48 37.0 0.0 2.0 NW 0.00 30.153
03/11/2006 7:50 p 56.3 56.3 56.3 56.3 56.2 49 37.4 0.0 1.0 NW 0.00 30.150
03/11/2006 8:00 p 56.1 56.1 56.1 56.2 55.9 50 37.7 0.0 0.0 --- 0.00 30.160
03/11/2006 8:10 p 55.7 55.7 55.7 55.9 55.5 51 37.9 0.0 0.0 --- 0.00 30.159
03/11/2006 8:20 p 55.5 55.5 55.5 55.5 55.5 51 37.7 0.0 2.0 NW 0.00 30.152
03/11/2006 8:30 p 55.5 55.5 55.5 55.6 55.5 52 38.2 0.0 0.0 --- 0.00 30.151
03/11/2006 8:40 p 55.4 55.4 55.4 55.5 55.2 53 38.6 0.0 0.0 --- 0.00 30.153
03/11/2006 8:50 p 55.1 55.1 55.1 55.3 54.8 53 38.3 0.0 0.0 --- 0.00 30.143
03/11/2006 9:00 p 54.7 54.7 54.7 54.8 54.5 54 38.4 0.0 1.0 NW 0.00 30.136
03/11/2006 9:10 p 54.4 54.4 54.4 54.5 54.4 55 38.6 0.0 1.0 NW 0.00 30.146
03/11/2006 9:20 p 54.3 54.3 54.3 54.4 54.2 56 39.0 0.0 1.0 NW 0.00 30.140
03/11/2006 9:30 p 54.1 54.1 54.1 54.2 54.0 57 39.2 0.0 0.0 --- 0.00 30.135
03/11/2006 9:40 p 53.8 53.8 53.8 54.0 53.6 58 39.4 0.0 0.0 --- 0.00 30.153
03/11/2006 9:50 p 53.5 53.5 53.5 53.7 53.2 59 39.5 0.0 0.0 --- 0.00 30.155
03/11/2006 10:00 p 53.1 53.1 53.1 53.3 52.8 60 39.6 0.0 1.0 NW 0.00 30.141
03/11/2006 10:10 p 52.6 52.6 52.6 52.8 52.4 61 39.5 0.0 1.0 NW 0.00 30.155
03/11/2006 10:20 p 52.3 52.3 52.3 52.5 52.2 62 39.7 0.0 0.0 --- 0.00 30.170
03/11/2006 10:30 p 52.2 52.2 52.2 52.3 52.1 62 39.6 0.0 2.0 NW 0.00 30.163
03/11/2006 10:40 p 52.1 52.1 52.1 52.1 52.1 62 39.5 0.0 1.0 NW 0.00 30.162
03/11/2006 10:50 p 52.1 52.1 52.1 52.1 52.0 63 39.9 0.0 1.0 NW 0.00 30.170
03/11/2006 11:00 p 51.9 51.9 51.9 52.0 51.8 63 39.7 0.0 1.0 NW 0.00 30.165
03/11/2006 11:10 p 51.7 51.7 51.7 51.9 51.6 63 39.5 0.0 0.0 --- 0.00 30.161
03/11/2006 11:20 p 51.4 51.4 51.4 51.6 51.3 65 40.0 0.0 0.0 --- 0.00 30.162
03/11/2006 11:30 p 51.2 51.2 51.2 51.3 51.1 65 39.9 0.0 1.0 NW 0.00 30.159
03/11/2006 11:40 p 51.0 51.0 51.0 51.1 50.9 65 39.7 0.0 0.0 --- 0.00 30.151
03/11/2006 11:50 p 50.8 50.8 50.8 50.9 50.7 66 39.9 0.0 0.0 --- 0.00 30.154
03/12/2006 12:00 a 50.6 50.6 50.6 50.7 50.4 66 39.7 0.0 0.0 --- 0.00 30.154
03/12/2006 12:10 a 50.3 50.3 50.3 50.4 50.3 66 39.4 0.0 0.0 --- 0.00 30.155
03/12/2006 12:20 a 50.2 50.2 50.2 50.3 50.1 67 39.7 0.0 0.0 --- 0.00 30.159
03/12/2006 12:30 a 50.1 50.1 50.1 50.2 50.0 67 39.6 0.0 0.0 --- 0.00 30.158
03/12/2006 12:40 a 50.0 50.0 50.0 50.0 50.0 67 39.5 0.0 0.0 --- 0.00 30.158
03/12/2006 12:50 a 50.0 50.0 50.0 50.0 49.9 67 39.5 0.0 0.0 --- 0.00 30.154
03/12/2006 1:00 a 49.9 49.9 49.9 50.0 49.8 68 39.8 0.0 0.0 --- 0.00 30.156
03/12/2006 1:10 a 49.8 49.8 49.8 49.9 49.8 68 39.7 0.0 0.0 --- 0.00 30.158
03/12/2006 1:20 a 49.8 49.8 49.8 49.8 49.7 68 39.7 0.0 0.0 --- 0.00 30.158
03/12/2006 1:30 a 49.6 49.6 49.6 49.7 49.6 68 39.5 0.0 0.0 --- 0.00 30.151
03/12/2006 1:40 a 49.5 49.5 49.5 49.6 49.4 69 39.8 0.0 0.0 --- 0.00 30.147
03/12/2006 1:50 a 49.3 49.3 49.3 49.5 49.2 69 39.6 0.0 0.0 --- 0.00 30.146
03/12/2006 2:00 a 49.2 49.2 49.2 49.3 49.1 69 39.5 0.0 0.0 --- 0.00 30.142
03/12/2006 2:10 a 49.0 49.0 49.0 49.1 49.0 70 39.7 0.0 0.0 --- 0.00 30.146
03/12/2006 2:20 a 48.9 48.9 48.9 49.0 48.9 70 39.6 0.0 0.0 --- 0.00 30.147
03/12/2006 2:30 a 48.8 48.8 48.8 48.9 48.8 71 39.8 0.0 0.0 --- 0.00 30.144
03/12/2006 2:40 a 48.7 48.7 48.7 48.8 48.7 71 39.7 0.0 0.0 --- 0.00 30.133
03/12/2006 2:50 a 48.7 48.7 48.7 48.7 48.6 71 39.7 0.0 0.0 --- 0.00 30.133
03/12/2006 3:00 a 48.6 48.6 48.6 48.7 48.6 71 39.6 0.0 0.0 --- 0.00 30.124
03/12/2006 3:10 a 48.6 48.6 48.6 48.6 48.5 72 40.0 0.0 0.0 --- 0.00 30.129
03/12/2006 3:20 a 48.6 48.6 48.6 48.6 48.5 72 40.0 0.0 0.0 --- 0.00 30.122
03/12/2006 3:30 a 48.5 48.5 48.5 48.6 48.4 72 39.9 0.0 0.0 --- 0.00 30.119
03/12/2006 3:40 a 48.3 48.3 48.3 48.4 48.1 73 40.1 0.0 0.0 --- 0.00 30.127
03/12/2006 3:50 a 48.0 48.0 48.0 48.2 47.8 74 40.1 0.0 0.0 --- 0.00 30.119
03/12/2006 4:00 a 47.6 47.6 47.6 47.8 47.5 75 40.1 0.0 0.0 --- 0.00 30.118
03/12/2006 4:10 a 47.4 47.4 47.4 47.5 47.2 76 40.2 0.0 0.0 --- 0.00 30.113
03/12/2006 4:20 a 47.1 47.1 47.1 47.2 46.9 76 39.9 0.0 0.0 --- 0.00 30.111
03/12/2006 4:30 a 46.8 46.8 46.8 46.9 46.8 76 39.6 0.0 0.0 --- 0.00 30.105
03/12/2006 4:40 a 46.7 46.7 46.7 46.8 46.7 77 39.9 0.0 0.0 --- 0.00 30.102
03/12/2006 4:50 a 46.8 46.8 46.8 46.8 46.7 77 40.0 0.0 0.0 --- 0.00 30.095
03/12/2006 5:00 a 46.8 46.8 46.8 46.9 46.8 77 40.0 0.0 0.0 --- 0.00 30.099
03/12/2006 5:10 a 47.0 47.0 47.0 47.2 46.9 77 40.2 0.0 0.0 --- 0.00 30.104
03/12/2006 5:20 a 47.3 47.3 47.3 47.3 47.1 77 40.5 0.0 0.0 --- 0.00 30.103
03/12/2006 5:30 a 47.3 47.3 47.3 47.3 47.3 76 40.1 0.0 0.0 --- 0.00 30.097
03/12/2006 5:40 a 47.3 47.3 47.3 47.3 47.3 76 40.1 0.0 0.0 --- 0.00 30.095
03/12/2006 5:50 a 47.4 47.4 47.4 47.4 47.3 77 40.6 0.0 0.0 --- 0.00 30.097
03/12/2006 6:00 a 47.4 47.4 47.4 47.5 47.4 76 40.2 0.0 0.0 --- 0.00 30.100
03/12/2006 6:10 a 47.6 47.6 47.6 47.6 47.5 76 40.4 0.0 0.0 --- 0.00 30.094
03/12/2006 6:20 a 47.6 47.6 47.6 47.7 47.6 77 40.8 0.0 0.0 --- 0.00 30.083
03/12/2006 6:30 a 47.7 47.7 47.7 47.8 47.6 76 40.5 0.0 0.0 --- 0.00 30.088
03/12/2006 6:40 a 47.9 47.9 47.9 48.0 47.8 77 41.0 0.0 0.0 --- 0.00 30.081
03/12/2006 6:50 a 48.0 48.0 48.0 48.1 47.9 81 42.5 0.0 0.0 --- 0.00 30.083
03/12/2006 7:00 a 47.7 47.7 47.7 47.9 47.6 83 42.8 0.0 0.0 --- 0.00 30.088
03/12/2006 7:10 a 47.5 47.5 47.5 47.6 47.3 84 42.9 0.0 0.0 --- 0.01 30.084
03/12/2006 7:20 a 47.3 47.3 47.3 47.4 47.2 86 43.3 0.0 0.0 --- 0.02 30.082
03/12/2006 7:30 a 47.2 47.2 47.2 47.2 47.1 88 43.8 0.0 0.0 --- 0.00 30.082
03/12/2006 7:40 a 47.1 47.1 47.1 47.1 47.0 89 44.0 0.0 0.0 --- 0.00 30.076
03/12/2006 7:50 a 47.0 47.0 47.0 47.0 46.9 89 43.9 0.0 0.0 --- 0.02 30.075
03/12/2006 8:00 a 47.0 47.0 47.0 47.1 46.9 91 44.5 0.0 0.0 --- 0.00 30.072
03/12/2006 8:10 a 47.3 47.3 47.3 47.4 47.1 91 44.8 0.0 1.0 NW 0.03 30.065
03/12/2006 8:20 a 47.4 47.4 47.4 47.5 47.3 92 45.2 0.0 0.0 --- 0.02 30.062
03/12/2006 8:30 a 47.5 47.5 47.5 47.5 47.4 92 45.3 0.0 0.0 --- 0.01 30.056
03/12/2006 8:40 a 47.5 47.5 47.5 47.6 47.5 93 45.6 0.0 0.0 --- 0.00 30.058
03/12/2006 8:50 a 47.7 47.7 47.7 47.8 47.6 93 45.8 0.0 0.0 --- 0.00 30.053
03/12/2006 9:00 a 47.8 47.8 47.8 47.9 47.8 93 45.9 0.0 0.0 --- 0.02 30.052
03/12/2006 9:10 a 48.0 48.0 48.0 48.1 47.8 93 46.1 0.0 0.0 --- 0.01 30.058
03/12/2006 9:20 a 48.2 48.2 48.2 48.2 48.1 93 46.3 0.0 0.0 --- 0.02 30.046
03/12/2006 9:30 a 48.1 48.1 48.1 48.2 48.1 94 46.5 0.0 2.0 NW 0.07 30.046
03/12/2006 9:40 a 48.1 48.1 48.1 48.1 48.0 94 46.5 0.0 2.0 NW 0.03 30.040
03/12/2006 9:50 a 47.9 47.9 47.9 48.0 47.8 94 46.3 0.0 0.0 --- 0.01 30.036
03/12/2006 10:00 a 47.9 47.9 47.9 48.0 47.8 95 46.5 0.0 0.0 --- 0.00 30.030
03/12/2006 10:10 a 48.0 48.0 48.0 48.1 47.9 96 46.9 0.0 0.0 --- 0.01 30.027
03/12/2006 10:20 a 48.1 48.1 48.1 48.2 48.1 95 46.7 0.0 0.0 --- 0.00 30.019
03/12/2006 10:30 a 48.2 48.2 48.2 48.3 48.1 96 47.1 0.0 0.0 --- 0.00 30.013
03/12/2006 10:40 a 48.4 48.4 48.4 48.5 48.3 96 47.3 0.0 0.0 --- 0.01 30.011
03/12/2006 10:50 a 48.5 48.5 48.5 48.5 48.4 96 47.4 0.0 0.0 --- 0.00 30.005
03/12/2006 11:00 a 48.5 48.5 48.5 48.5 48.5 96 47.4 0.0 1.0 NW 0.00 30.000
03/12/2006 11:10 a 48.6 48.6 48.6 48.8 48.5 96 47.5 0.0 1.0 NW 0.00 29.987
03/12/2006 11:20 a 48.9 48.9 48.9 49.2 48.7 97 48.1 0.0 0.0 --- 0.00 29.974
03/12/2006 11:30 a 49.4 49.4 49.4 49.7 49.1 97 48.6 0.0 1.0 NW 0.01 29.968
03/12/2006 11:40 a 49.9 49.9 49.9 50.1 49.7 96 48.8 0.0 1.0 NW 0.00 29.963
03/12/2006 11:50 a 50.1 50.1 50.1 50.2 50.0 95 48.7 0.0 0.0 --- 0.00 29.946
03/12/2006 12:00 p 50.3 50.3 50.3 50.4 50.2 94 48.6 0.0 0.0 --- 0.00 29.940
03/12/2006 12:10 p 50.6 50.6 50.6 51.0 50.4 96 49.5 0.0 2.0 NW 0.00 29.937
03/12/2006 12:20 p 51.1 51.1 51.1 51.2 51.0 96 50.0 0.0 0.0 --- 0.00 29.933
03/12/2006 12:30 p 51.3 51.3 51.3 51.4 51.2 96 50.2 0.0 1.0 NW 0.00 29.926
03/12/2006 12:40 p 51.5 51.5 51.5 51.5 51.4 96 50.4 0.0 0.0 --- 0.00 29.928
03/12/2006 12:50 p 51.5 51.5 51.5 51.5 51.5 96 50.4 0.0 1.0 NW 0.00 29.926
03/12/2006 1:00 p 51.6 51.6 51.6 51.8 51.5 96 50.5 0.0 1.0 NW 0.00 29.915
03/12/2006 1:10 p 51.9 51.9 51.9 51.9 51.7 95 50.5 0.0 1.0 --- 0.00 29.915
03/12/2006 1:20 p 52.0 52.0 52.0 52.2 51.9 94 50.3 0.0 1.0 NW 0.00 29.907
03/12/2006 1:30 p 52.3 52.3 52.3 52.5 52.1 93 50.3 0.0 2.0 N 0.00 29.908
03/12/2006 1:40 p 52.8 52.8 52.8 53.0 52.5 93 50.8 0.0 2.0 N 0.00 29.910
03/12/2006 1:50 p 53.2 53.2 53.2 53.2 53.0 91 50.6 0.0 1.0 N 0.00 29.910
03/12/2006 2:00 p 53.2 53.2 53.2 53.3 53.2 92 50.9 0.0 1.0 N 0.00 29.899
03/12/2006 2:10 p 53.4 53.4 53.4 53.6 53.3 92 51.1 0.0 1.0 N 0.00 29.900
03/12/2006 2:20 p 53.6 53.6 53.6 53.6 53.6 91 51.0 0.0 1.0 N 0.00 29.904
03/12/2006 2:30 p 53.5 53.5 53.5 53.6 53.4 91 50.9 0.0 1.0 N 0.00 29.893
03/12/2006 2:40 p 53.3 53.3 53.3 53.4 53.3 92 51.0 0.0 0.0 --- 0.00 29.897
03/12/2006 2:50 p 53.3 53.3 53.3 53.4 53.2 92 51.0 0.0 1.0 --- 0.00 29.889
03/12/2006 3:00 p 53.4 53.4 53.4 53.4 53.3 93 51.4 0.0 1.0 N 0.00 29.884
03/12/2006 3:10 p 53.3 53.3 53.3 53.4 53.3 94 51.6 0.0 1.0 N 0.01 29.879
03/12/2006 3:20 p 53.3 53.3 53.3 53.3 53.2 94 51.6 0.0 2.0 N 0.00 29.870
03/12/2006 3:30 p 53.3 53.3 53.3 53.3 53.3 94 51.6 0.0 1.0 N 0.00 29.874
03/12/2006 3:40 p 53.2 53.2 53.2 53.3 53.1 95 51.8 1.0 4.0 N 0.00 29.888
03/12/2006 3:50 p 53.1 53.1 53.1 53.2 53.1 95 51.7 1.0 4.0 ENE 0.00 29.887
03/12/2006 4:00 p 53.1 53.1 53.1 53.1 53.0 96 52.0 0.0 2.0 ENE 0.01 29.891
03/12/2006 4:10 p 53.1 53.1 53.1 53.2 53.1 96 52.0 0.0 0.0 --- 0.00 29.876
03/12/2006 4:20 p 53.2 53.2 53.2 53.3 53.1 97 52.4 0.0 1.0 ENE 0.00 29.861
03/12/2006 4:30 p 53.3 53.3 53.3 53.3 53.2 97 52.5 0.0 0.0 --- 0.00 29.866
03/12/2006 4:40 p 53.3 53.3 53.3 53.4 53.3 98 52.8 1.0 3.0 ENE 0.00 29.887
03/12/2006 4:50 p 53.4 53.4 53.4 53.5 53.4 97 52.6 0.0 4.0 ENE 0.00 29.886
03/12/2006 5:00 p 53.4 53.4 53.4 53.5 53.3 97 52.6 0.0 1.0 ENE 0.00 29.892
03/12/2006 5:10 p 53.3 53.3 53.3 53.4 53.2 97 52.5 0.0 0.0 --- 0.00 29.888
03/12/2006 5:20 p 53.2 53.2 53.2 53.3 53.1 97 52.4 0.0 0.0 --- 0.00 29.888
03/12/2006 5:30 p 53.0 53.0 53.0 53.1 53.0 98 52.5 0.0 1.0 ENE 0.00 29.902
03/12/2006 5:40 p 53.0 53.0 53.0 53.1 52.9 98 52.5 0.0 0.0 --- 0.00 29.902
03/12/2006 5:50 p 52.8 52.8 52.8 52.9 52.7 97 52.0 0.0 0.0 --- 0.00 29.903
03/12/2006 6:00 p 52.6 52.6 52.6 52.7 52.4 97 51.8 0.0 0.0 --- 0.00 29.911
03/12/2006 6:10 p 52.3 52.3 52.3 52.4 52.1 97 51.5 0.0 0.0 --- 0.00 29.915
03/12/2006 6:20 p 52.0 52.0 52.0 52.1 51.8 98 51.5 0.0 0.0 --- 0.00 29.917
03/12/2006 6:30 p 51.6 51.6 51.6 51.8 51.3 97 50.8 0.0 0.0 --- 0.00 29.916
03/12/2006 6:40 p 51.0 51.0 51.0 51.3 50.8 97 50.2 0.0 0.0 --- 0.00 29.915
03/12/2006 6:50 p 50.6 50.6 50.6 50.8 50.2 97 49.8 0.0 0.0 --- 0.00 29.912
03/12/2006 7:00 p 50.0 50.0 50.0 50.3 49.8 97 49.2 0.0 0.0 --- 0.00 29.913
03/12/2006 7:10 p 49.6 49.6 49.6 49.8 49.5 97 48.8 0.0 0.0 --- 0.00 29.918
03/12/2006 7:20 p 49.7 49.7 49.7 50.0 49.5 99 49.4 0.0 0.0 --- 0.00 29.915
03/12/2006 7:30 p 50.0 50.0 50.0 50.1 49.9 99 49.7 0.0 0.0 --- 0.00 29.911
03/12/2006 7:40 p 49.9 49.9 49.9 50.0 49.7 99 49.6 0.0 0.0 --- 0.00 29.908
03/12/2006 7:50 p 49.6 49.6 49.6 49.7 49.5 99 49.3 0.0 0.0 --- 0.00 29.911
03/12/2006 8:00 p 49.9 49.9 49.9 50.0 49.7 100 49.9 0.0 0.0 --- 0.00 29.907
03/12/2006 8:10 p 49.9 49.9 49.9 50.0 49.7 100 49.9 0.0 0.0 --- 0.00 29.913
03/12/2006 8:20 p 49.4 49.4 49.4 49.7 49.1 99 49.1 0.0 0.0 --- 0.00 29.909
03/12/2006 8:30 p 49.0 49.0 49.0 49.1 48.9 99 48.7 0.0 0.0 --- 0.00 29.908
03/12/2006 8:40 p 48.9 48.9 48.9 49.0 48.8 99 48.6 0.0 0.0 --- 0.00 29.898
03/12/2006 8:50 p 48.4 48.4 48.4 48.8 47.8 98 47.9 0.0 0.0 --- 0.00 29.895
03/12/2006 9:00 p 47.5 47.5 47.5 47.9 47.2 98 47.0 0.0 0.0 --- 0.00 29.893
03/12/2006 9:10 p 47.1 47.1 47.1 47.2 47.0 99 46.8 0.0 0.0 --- 0.00 29.893
03/12/2006 9:20 p 46.9 46.9 46.9 47.0 46.6 98 46.4 0.0 0.0 --- 0.00 29.895
03/12/2006 9:30 p 46.6 46.6 46.6 46.8 46.5 100 46.6 0.0 0.0 --- 0.00 29.894
03/12/2006 9:40 p 46.9 46.9 46.9 47.0 46.8 100 46.9 0.0 0.0 --- 0.00 29.893
03/12/2006 9:50 p 47.1 47.1 47.1 47.3 47.0 100 47.1 0.0 0.0 --- 0.00 29.889
03/12/2006 10:00 p 47.4 47.4 47.4 47.4 47.3 100 47.4 0.0 0.0 --- 0.00 29.890
03/12/2006 10:10 p 47.5 47.5 47.5 47.6 47.4 100 47.5 0.0 0.0 --- 0.00 29.897
03/12/2006 10:20 p 47.7 47.7 47.7 47.9 47.6 100 47.7 0.0 0.0 --- 0.00 29.894
03/12/2006 10:30 p 48.0 48.0 48.0 48.2 47.9 100 48.0 0.0 0.0 --- 0.00 29.890
03/12/2006 10:40 p 48.1 48.1 48.1 48.2 48.1 100 48.1 0.0 0.0 --- 0.00 29.887
03/12/2006 10:50 p 48.1 48.1 48.1 48.2 48.1 100 48.1 0.0 0.0 --- 0.00 29.881
03/12/2006 11:00 p 48.0 48.0 48.0 48.1 47.9 100 48.0 0.0 0.0 --- 0.00 29.874
03/12/2006 11:10 p 47.9 47.9 47.9 48.0 47.8 100 47.9 0.0 0.0 --- 0.00 29.873
03/12/2006 11:20 p 47.8 47.8 47.8 47.8 47.7 100 47.8 0.0 0.0 --- 0.00 29.876
03/12/2006 11:30 p 47.7 47.7 47.7 47.8 47.6 100 47.7 0.0 0.0 --- 0.00 29.876
03/12/2006 11:40 p 47.4 47.4 47.4 47.7 47.1 100 47.4 0.0 0.0 --- 0.00 29.875
03/12/2006 11:50 p 46.9 46.9 46.9 47.1 46.7 100 46.9 0.0 0.0 --- 0.00 29.874
03/13/2006 12:00 a 46.7 46.7 46.7 46.7 46.7 100 46.7 0.0 0.0 --- 0.00 29.876
03/13/2006 12:10 a 46.5 46.5 46.5 46.7 46.3 100 46.5 0.0 0.0 --- 0.00 29.872
03/13/2006 12:20 a 46.2 46.2 46.2 46.3 46.0 100 46.2 0.0 0.0 --- 0.00 29.879
03/13/2006 12:30 a 46.0 46.0 46.0 46.1 45.9 100 46.0 0.0 0.0 --- 0.00 29.877
03/13/2006 12:40 a 45.8 45.8 45.8 45.9 45.6 100 45.8 0.0 0.0 --- 0.00 29.876
03/13/2006 12:50 a 45.6 45.6 45.6 45.8 45.5 100 45.6 0.0 0.0 --- 0.00 29.871
03/13/2006 1:00 a 46.1 46.1 46.1 46.3 45.8 100 46.1 0.0 0.0 --- 0.00 29.876
03/13/2006 1:10 a 46.4 46.4 46.4 46.5 46.3 100 46.4 0.0 0.0 --- 0.00 29.881
03/13/2006 1:20 a 46.3 46.3 46.3 46.4 46.2 100 46.3 0.0 0.0 --- 0.00 29.872
03/13/2006 1:30 a 46.2 46.2 46.2 46.3 46.2 100 46.2 0.0 0.0 --- 0.00 29.865
03/13/2006 1:40 a 46.2 46.2 46.2 46.3 46.1 100 46.2 0.0 0.0 --- 0.00 29.856
03/13/2006 1:50 a 46.3 46.3 46.3 46.4 46.2 100 46.3 0.0 0.0 --- 0.00 29.858
03/13/2006 2:00 a 46.3 46.3 46.3 46.4 46.2 100 46.3 0.0 0.0 --- 0.00 29.857
03/13/2006 2:10 a 46.1 46.1 46.1 46.2 46.0 100 46.1 0.0 0.0 --- 0.00 29.845
03/13/2006 2:20 a 46.0 46.0 46.0 46.0 45.9 100 46.0 0.0 0.0 --- 0.00 29.844
03/13/2006 2:30 a 46.0 46.0 46.0 46.1 46.0 100 46.0 0.0 0.0 --- 0.00 29.845
03/13/2006 2:40 a 46.0 46.0 46.0 46.0 45.9 100 46.0 0.0 0.0 --- 0.00 29.847
03/13/2006 2:50 a 45.8 45.8 45.8 45.9 45.7 100 45.8 0.0 0.0 --- 0.00 29.844
03/13/2006 3:00 a 45.7 45.7 45.7 45.8 45.6 100 45.7 0.0 0.0 --- 0.00 29.838
03/13/2006 3:10 a 45.6 45.6 45.6 45.6 45.6 100 45.6 0.0 0.0 --- 0.00 29.838
03/13/2006 3:20 a 45.6 45.6 45.6 45.7 45.6 100 45.6 0.0 0.0 --- 0.00 29.838
03/13/2006 3:30 a 45.8 45.8 45.8 45.9 45.7 100 45.8 0.0 0.0 --- 0.00 29.835
03/13/2006 3:40 a 45.9 45.9 45.9 46.0 45.9 100 45.9 0.0 0.0 --- 0.00 29.834
03/13/2006 3:50 a 46.1 46.1 46.1 46.2 46.0 100 46.1 0.0 0.0 --- 0.00 29.843
03/13/2006 4:00 a 46.3 46.3 46.3 46.3 46.2 100 46.3 0.0 0.0 --- 0.00 29.841
03/13/2006 4:10 a 46.3 46.3 46.3 46.3 46.2 100 46.3 0.0 0.0 --- 0.00 29.836
03/13/2006 4:20 a 46.2 46.2 46.2 46.3 46.2 100 46.2 0.0 0.0 --- 0.00 29.832
03/13/2006 4:30 a 46.2 46.2 46.2 46.2 46.1 100 46.2 0.0 0.0 --- 0.00 29.820
03/13/2006 4:40 a 46.2 46.2 46.2 46.2 46.1 100 46.2 0.0 0.0 --- 0.00 29.826
03/13/2006 4:50 a 46.3 46.3 46.3 46.3 46.2 100 46.3 0.0 0.0 --- 0.00 29.827
03/13/2006 5:00 a 46.3 46.3 46.3 46.3 46.2 100 46.3 0.0 0.0 --- 0.00 29.825
03/13/2006 5:10 a 46.1 46.1 46.1 46.2 46.0 100 46.1 0.0 0.0 --- 0.00 29.823
03/13/2006 5:20 a 46.0 46.0 46.0 46.1 46.0 100 46.0 0.0 0.0 --- 0.00 29.823
03/13/2006 5:30 a 46.1 46.1 46.1 46.2 46.1 100 46.1 0.0 0.0 --- 0.00 29.822
03/13/2006 5:40 a 46.2 46.2 46.2 46.3 46.2 100 46.2 0.0 0.0 --- 0.00 29.820
03/13/2006 5:50 a 46.3 46.3 46.3 46.4 46.3 100 46.3 0.0 0.0 --- 0.00 29.818
03/13/2006 6:00 a 46.4 46.4 46.4 46.5 46.3 100 46.4 0.0 0.0 --- 0.00 29.811
03/13/2006 6:10 a 46.5 46.5 46.5 46.6 46.4 100 46.5 0.0 0.0 --- 0.00 29.812
03/13/2006 6:20 a 46.7 46.7 46.7 46.8 46.6 100 46.7 0.0 0.0 --- 0.00 29.820
03/13/2006 6:30 a 46.9 46.9 46.9 46.9 46.8 100 46.9 0.0 0.0 --- 0.00 29.821
03/13/2006 6:40 a 47.1 47.1 47.1 47.2 46.9 100 47.1 0.0 0.0 --- 0.00 29.818
03/13/2006 6:50 a 47.4 47.4 47.4 47.5 47.2 100 47.4 0.0 0.0 --- 0.00 29.826
03/13/2006 7:00 a 47.6 47.6 47.6 47.7 47.5 100 47.6 0.0 0.0 --- 0.00 29.828
03/13/2006 7:10 a 47.9 47.9 47.9 48.0 47.7 100 47.9 0.0 0.0 --- 0.00 29.829
03/13/2006 7:20 a 48.1 48.1 48.1 48.3 48.0 100 48.1 0.0 0.0 --- 0.00 29.831
03/13/2006 7:30 a 48.4 48.4 48.4 48.5 48.3 100 48.4 0.0 1.0 ENE 0.00 29.818
03/13/2006 7:40 a 48.6 48.6 48.6 48.8 48.5 100 48.6 0.0 0.0 --- 0.00 29.830
03/13/2006 7:50 a 49.0 49.0 49.0 49.3 48.8 100 49.0 0.0 0.0 --- 0.00 29.822
03/13/2006 8:00 a 49.6 49.6 49.6 50.0 49.3 100 49.6 0.0 1.0 --- 0.00 29.828
03/13/2006 8:10 a 50.3 50.3 50.3 50.5 50.0 100 50.3 0.0 0.0 --- 0.00 29.820
03/13/2006 8:20 a 50.6 50.6 50.6 50.8 50.5 100 50.6 0.0 0.0 --- 0.00 29.821
03/13/2006 8:30 a 50.8 50.8 50.8 51.0 50.7 100 50.8 0.0 1.0 --- 0.00 29.803
03/13/2006 8:40 a 51.3 51.3 51.3 51.6 51.0 100 51.3 0.0 1.0 --- 0.00 29.800
03/13/2006 8:50 a 52.0 52.0 52.0 52.3 51.6 100 52.0 0.0 1.0 NNE 0.00 29.797
03/13/2006 9:00 a 52.6 52.6 52.6 52.9 52.3 100 52.6 0.0 2.0 N 0.00 29.793
03/13/2006 9:10 a 53.2 53.2 53.2 53.5 52.9 100 53.2 0.0 2.0 N 0.00 29.781
03/13/2006 9:20 a 54.0 54.0 54.0 54.6 53.5 100 54.0 1.0 3.0 NW 0.00 29.769
03/13/2006 9:30 a 55.2 55.2 55.2 55.7 54.6 96 54.1 0.0 2.0 NNW 0.00 29.770
03/13/2006 9:40 a 56.3 56.3 56.3 56.8 55.7 92 54.0 0.0 3.0 NNW 0.00 29.768
03/13/2006 9:50 a 57.3 57.3 57.3 57.8 56.8 89 54.1 1.0 2.0 W 0.00 29.764
03/13/2006 10:00 a 58.2 58.2 58.2 58.6 57.8 87 54.4 0.0 2.0 NNW 0.00 29.761
03/13/2006 10:10 a 58.9 58.9 58.9 59.2 58.6 87 55.0 0.0 1.0 NNW 0.00 29.751
03/13/2006 10:20 a 59.6 59.6 59.6 59.8 59.2 84 54.8 0.0 2.0 NW 0.00 29.743
03/13/2006 10:30 a 60.1 60.1 60.1 60.3 59.8 84 55.3 0.0 3.0 NW 0.00 29.743
03/13/2006 10:40 a 60.5 60.5 60.5 60.7 60.3 82 55.0 0.0 0.0 --- 0.00 29.738
03/13/2006 10:50 a 60.9 60.9 60.9 61.2 60.7 82 55.4 0.0 2.0 N 0.00 29.735
03/13/2006 11:00 a 61.4 61.4 61.4 61.5 61.2 82 55.9 0.0 2.0 NNW 0.00 29.725
03/13/2006 11:10 a 61.7 61.7 61.7 62.0 61.5 81 55.8 0.0 3.0 NW 0.00 29.721
03/13/2006 11:20 a 62.2 62.2 62.2 62.4 62.0 80 56.0 0.0 4.0 NW 0.00 29.714
03/13/2006 11:30 a 62.6 62.6 62.6 62.7 62.4 80 56.4 1.0 3.0 NW 0.00 29.708
03/13/2006 11:40 a 63.0 63.0 63.0 63.3 62.7 78 56.0 0.0 3.0 NW 0.00 29.696
03/13/2006 11:50 a 63.8 63.8 63.8 64.2 63.4 78 56.8 1.0 3.0 NW 0.00 29.682
03/13/2006 12:00 p 64.7 64.7 64.7 65.0 64.2 75 56.6 1.0 5.0 NNW 0.00 29.672
03/13/2006 12:10 p 65.2 65.2 65.2 65.6 65.0 73 56.3 0.0 4.0 NNW 0.00 29.661
03/13/2006 12:20 p 65.8 65.8 65.8 65.9 65.6 73 56.9 1.0 4.0 NNW 0.00 29.654
03/13/2006 12:30 p 66.0 66.0 66.0 66.3 65.9 72 56.7 1.0 3.0 NW 0.00 29.644
03/13/2006 12:40 p 66.5 66.5 66.5 66.8 66.3 72 57.2 1.0 4.0 NNW 0.00 29.632
03/13/2006 12:50 p 67.0 67.0 67.0 67.3 66.8 72 57.7 1.0 5.0 NW 0.00 29.624
03/13/2006 1:00 p 67.5 67.5 67.5 67.8 67.3 70 57.4 1.0 3.0 WNW 0.00 29.621
03/13/2006 1:10 p 68.0 68.2 68.2 68.7 67.8 69 57.7 0.0 2.0 N 0.00 29.615
03/13/2006 1:20 p 69.0 68.9 68.9 68.9 68.7 67 57.5 0.0 4.0 NNW 0.00 29.607
03/13/2006 1:30 p 69.0 69.0 69.0 69.3 68.9 67 57.6 1.0 4.0 NNW 0.00 29.598
03/13/2006 1:40 p 69.0 69.3 69.3 69.4 69.2 67 57.9 0.0 3.0 NNW 0.00 29.596
03/13/2006 1:50 p 69.0 69.4 69.4 69.6 69.2 66 57.6 1.0 3.0 WSW 0.00 29.592
03/13/2006 2:00 p 69.0 69.0 69.0 69.2 68.9 66 57.2 1.0 4.0 WSW 0.00 29.584
03/13/2006 2:10 p 69.0 69.0 69.0 69.2 68.9 66 57.2 0.0 3.0 W 0.00 29.580
03/13/2006 2:20 p 69.0 69.3 69.3 69.3 69.2 65 57.0 1.0 5.0 NW 0.00 29.577
03/13/2006 2:30 p 69.0 69.4 69.4 69.4 69.2 64 56.7 1.0 3.0 WSW 0.00 29.567
03/13/2006 2:40 p 69.0 69.0 69.0 69.2 68.9 66 57.2 0.0 3.0 W 0.00 29.563
03/13/2006 2:50 p 69.0 68.8 68.8 68.9 68.7 65 56.6 1.0 3.0 NW 0.00 29.559
03/13/2006 3:00 p 69.0 68.6 68.6 68.7 68.5 66 56.8 0.0 3.0 WSW 0.00 29.553
03/13/2006 3:10 p 68.0 68.4 68.4 68.5 68.4 65 56.2 0.0 2.0 NW 0.00 29.550
03/13/2006 3:20 p 69.0 68.5 68.5 68.7 68.4 64 55.9 0.0 3.0 NW 0.00 29.541
03/13/2006 3:30 p 69.0 68.6 68.6 68.7 68.2 64 56.0 1.0 3.0 NW 0.00 29.541
03/13/2006 3:40 p 68.0 68.0 68.0 68.2 67.7 65 55.8 0.0 3.0 WNW 0.00 29.542
03/13/2006 3:50 p 67.3 67.3 67.3 67.7 66.9 66 55.6 0.0 3.0 WNW 0.00 29.543
03/13/2006 4:00 p 66.5 66.5 66.5 66.8 66.1 66 54.8 1.0 4.0 WNW 0.00 29.546
03/13/2006 4:10 p 65.7 65.7 65.7 66.1 65.3 66 54.0 1.0 3.0 NNW 0.00 29.543
03/13/2006 4:20 p 64.7 64.7 64.7 65.3 64.2 68 53.9 0.0 3.0 NW 0.00 29.538
03/13/2006 4:30 p 63.8 63.8 63.8 64.2 63.3 70 53.8 0.0 1.0 NNW 0.00 29.539
03/13/2006 4:40 p 62.8 62.8 62.8 63.3 62.2 71 53.3 0.0 1.0 NNW 0.00 29.541
03/13/2006 4:50 p 61.7 61.7 61.7 62.2 61.3 73 53.0 0.0 1.0 NNW 0.00 29.537
03/13/2006 5:00 p 60.8 60.8 60.8 61.3 60.3 74 52.5 0.0 3.0 WNW 0.00 29.532
03/13/2006 5:10 p 59.8 59.8 59.8 60.3 59.5 75 51.9 0.0 3.0 NNW 0.00 29.523
03/13/2006 5:20 p 59.3 59.3 59.3 59.5 59.0 76 51.7 0.0 2.0 NNW 0.00 29.521
03/13/2006 5:30 p 58.7 58.7 58.7 59.0 58.4 76 51.2 0.0 2.0 NNW 0.00 29.514
03/13/2006 5:40 p 58.1 58.1 58.1 58.4 57.8 78 51.3 0.0 1.0 NW 0.00 29.515
03/13/2006 5:50 p 57.6 57.6 57.6 57.8 57.3 79 51.1 0.0 0.0 --- 0.00 29.515
03/13/2006 6:00 p 57.1 57.1 57.1 57.3 56.9 79 50.7 0.0 0.0 --- 0.00 29.512
03/13/2006 6:10 p 56.7 56.7 56.7 56.9 56.5 79 50.3 0.0 0.0 --- 0.00 29.510
03/13/2006 6:20 p 56.3 56.3 56.3 56.5 56.1 79 49.9 0.0 1.0 NW 0.00 29.508
03/13/2006 6:30 p 55.9 55.9 55.9 56.1 55.7 80 49.8 0.0 2.0 NW 0.00 29.498
03/13/2006 6:40 p 55.5 55.5 55.5 55.7 55.3 80 49.4 0.0 1.0 NW 0.00 29.487
03/13/2006 6:50 p 55.1 55.1 55.1 55.3 54.8 81 49.4 0.0 0.0 --- 0.00 29.479
03/13/2006 7:00 p 54.6 54.6 54.6 54.8 54.3 81 48.9 0.0 1.0 NW 0.00 29.477
03/13/2006 7:10 p 54.1 54.1 54.1 54.3 53.9 82 48.7 0.0 1.0 NW 0.00 29.474
03/13/2006 7:20 p 53.8 53.8 53.8 53.9 53.6 82 48.4 0.0 0.0 --- 0.00 29.462
03/13/2006 7:30 p 53.5 53.5 53.5 53.7 53.4 83 48.5 0.0 0.0 --- 0.00 29.453
03/13/2006 7:40 p 53.3 53.3 53.3 53.4 53.2 84 48.6 0.0 0.0 --- 0.00 29.452
03/13/2006 7:50 p 53.2 53.2 53.2 53.2 53.1 84 48.5 0.0 1.0 --- 0.00 29.455
03/13/2006 8:00 p 53.1 53.1 53.1 53.2 53.1 85 48.7 0.0 1.0 NW 0.00 29.448
03/13/2006 8:10 p 53.1 53.1 53.1 53.1 53.1 85 48.7 0.0 2.0 NE 0.00 29.452
03/13/2006 8:20 p 53.1 53.1 53.1 53.1 53.1 84 48.4 0.0 0.0 --- 0.00 29.451
03/13/2006 8:30 p 53.1 53.1 53.1 53.1 53.0 84 48.4 0.0 0.0 --- 0.00 29.455
03/13/2006 8:40 p 53.0 53.0 53.0 53.0 52.9 85 48.6 0.0 0.0 --- 0.00 29.452
03/13/2006 8:50 p 52.9 52.9 52.9 53.0 52.9 86 48.8 0.0 2.0 NE 0.00 29.451
03/13/2006 9:00 p 53.0 53.0 53.0 53.0 52.9 85 48.6 0.0 2.0 S 0.00 29.444
03/13/2006 9:10 p 53.0 53.0 53.0 53.1 53.0 85 48.6 0.0 2.0 S 0.00 29.446
03/13/2006 9:20 p 53.0 53.0 53.0 53.1 53.0 86 48.9 0.0 0.0 --- 0.00 29.445
03/13/2006 9:30 p 53.5 53.5 53.5 54.0 53.1 86 49.4 1.0 3.0 SE 0.00 29.471
03/13/2006 9:40 p 54.5 54.5 54.5 54.8 54.1 86 50.4 0.0 3.0 SE 0.00 29.461
03/13/2006 9:50 p 55.0 55.0 55.0 55.2 54.8 85 50.6 0.0 1.0 SE 0.00 29.466
03/13/2006 10:00 p 55.3 55.3 55.3 55.5 55.2 85 50.9 0.0 0.0 --- 0.00 29.452
03/13/2006 10:10 p 55.6 55.6 55.6 55.7 55.5 85 51.2 0.0 0.0 --- 0.00 29.448
03/13/2006 10:20 p 55.8 55.8 55.8 55.9 55.7 85 51.4 0.0 0.0 --- 0.00 29.443
03/13/2006 10:30 p 56.0 56.0 56.0 56.1 55.9 85 51.6 0.0 2.0 SE 0.00 29.437
03/13/2006 10:40 p 56.1 56.1 56.1 56.1 56.1 84 51.3 0.0 1.0 SE 0.00 29.434
03/13/2006 10:50 p 56.1 56.1 56.1 56.1 56.0 84 51.3 0.0 1.0 SE 0.00 29.430
03/13/2006 11:00 p 55.9 55.9 55.9 56.0 55.8 84 51.1 0.0 0.0 --- 0.00 29.425
03/13/2006 11:10 p 55.6 55.6 55.6 55.8 55.4 85 51.2 0.0 0.0 --- 0.00 29.428
03/13/2006 11:20 p 55.3 55.3 55.3 55.4 55.1 86 51.2 0.0 0.0 --- 0.00 29.420
03/13/2006 11:30 p 55.0 55.0 55.0 55.1 54.9 86 50.9 0.0 0.0 --- 0.00 29.410
03/13/2006 11:40 p 54.8 54.8 54.8 54.9 54.7 86 50.7 0.0 0.0 --- 0.00 29.402
03/13/2006 11:50 p 54.6 54.6 54.6 54.7 54.4 87 50.8 0.0 0.0 --- 0.00 29.402
03/14/2006 12:00 a 54.3 54.3 54.3 54.4 54.1 88 50.8 0.0 0.0 --- 0.00 29.400
03/14/2006 12:10 a 54.0 54.0 54.0 54.1 53.9 88 50.5 0.0 0.0 --- 0.00 29.394
03/14/2006 12:20 a 53.8 53.8 53.8 53.9 53.7 88 50.3 0.0 0.0 --- 0.00 29.392
03/14/2006 12:30 a 53.7 53.7 53.7 53.8 53.7 89 50.5 0.0 0.0 --- 0.00 29.385
03/14/2006 12:40 a 53.8 53.8 53.8 53.9 53.8 89 50.6 0.0 0.0 --- 0.00 29.379
03/14/2006 12:50 a 53.8 53.8 53.8 53.9 53.8 89 50.6 0.0 0.0 --- 0.00 29.377
03/14/2006 1:00 a 53.7 53.7 53.7 53.8 53.6 89 50.5 0.0 0.0 --- 0.00 29.368
03/14/2006 1:10 a 53.6 53.6 53.6 53.6 53.6 90 50.7 0.0 0.0 --- 0.00 29.364
03/14/2006 1:20 a 53.5 53.5 53.5 53.6 53.5 89 50.3 0.0 0.0 --- 0.00 29.361
03/14/2006 1:30 a 53.5 53.5 53.5 53.5 53.4 90 50.6 0.0 1.0 --- 0.00 29.363
03/14/2006 1:40 a 53.4 53.4 53.4 53.5 53.4 89 50.2 0.0 0.0 --- 0.00 29.352
03/14/2006 1:50 a 53.4 53.4 53.4 53.4 53.4 89 50.2 0.0 0.0 --- 0.00 29.357
03/14/2006 2:00 a 53.4 53.4 53.4 53.4 53.4 89 50.2 0.0 0.0 --- 0.00 29.358
03/14/2006 2:10 a 53.5 53.5 53.5 53.6 53.4 90 50.6 0.0 0.0 --- 0.01 29.361
03/14/2006 2:20 a 53.5 53.5 53.5 53.6 53.4 91 50.9 0.0 0.0 --- 0.01 29.348
03/14/2006 2:30 a 53.3 53.3 53.3 53.4 53.2 92 51.0 0.0 0.0 --- 0.00 29.343
03/14/2006 2:40 a 53.1 53.1 53.1 53.2 53.0 94 51.4 0.0 0.0 --- 0.01 29.334
03/14/2006 2:50 a 52.9 52.9 52.9 53.1 52.8 94 51.2 0.0 0.0 --- 0.01 29.318
03/14/2006 3:00 a 52.7 52.7 52.7 52.8 52.6 96 51.6 0.0 0.0 --- 0.00 29.308
03/14/2006 3:10 a 52.6 52.6 52.6 52.6 52.5 96 51.5 0.0 0.0 --- 0.00 29.296
03/14/2006 3:20 a 52.5 52.5 52.5 52.6 52.5 97 51.7 0.0 0.0 --- 0.00 29.294
03/14/2006 3:30 a 52.5 52.5 52.5 52.5 52.4 98 52.0 0.0 0.0 --- 0.00 29.298
03/14/2006 3:40 a 52.4 52.4 52.4 52.5 52.4 98 51.9 0.0 0.0 --- 0.00 29.285
03/14/2006 3:50 a 52.4 52.4 52.4 52.5 52.4 98 51.9 0.0 0.0 --- 0.00 29.274
03/14/2006 4:00 a 52.4 52.4 52.4 52.5 52.4 99 52.1 0.0 0.0 --- 0.00 29.277
03/14/2006 4:10 a 52.5 52.5 52.5 52.6 52.4 99 52.2 0.0 0.0 --- 0.00 29.277
03/14/2006 4:20 a 52.4 52.4 52.4 52.5 52.3 99 52.1 0.0 0.0 --- 0.00 29.283
03/14/2006 4:30 a 52.4 52.4 52.4 52.5 52.3 99 52.1 0.0 1.0 SE 0.00 29.272
03/14/2006 4:40 a 52.2 52.2 52.2 52.3 52.2 100 52.2 0.0 0.0 --- 0.00 29.279
03/14/2006 4:50 a 52.4 52.4 52.4 52.5 52.3 100 52.4 0.0 0.0 --- 0.00 29.279
03/14/2006 5:00 a 52.5 52.5 52.5 52.6 52.4 100 52.5 0.0 0.0 --- 0.00 29.281
03/14/2006 5:10 a 52.2 52.2 52.2 52.4 52.1 99 51.9 0.0 0.0 --- 0.00 29.280
03/14/2006 5:20 a 52.0 52.0 52.0 52.1 51.9 99 51.7 0.0 0.0 --- 0.00 29.277
03/14/2006 5:30 a 51.8 51.8 51.8 51.9 51.7 99 51.5 0.0 0.0 --- 0.00 29.271
03/14/2006 5:40 a 51.7 51.7 51.7 51.8 51.6 99 51.4 0.0 0.0 --- 0.00 29.275
03/14/2006 5:50 a 51.6 51.6 51.6 51.7 51.6 100 51.6 0.0 0.0 --- 0.00 29.284
03/14/2006 6:00 a 51.5 51.5 51.5 51.6 51.5 100 51.5 0.0 2.0 SE 0.00 29.285
03/14/2006 6:10 a 52.3 52.3 52.3 53.3 51.6 100 52.3 1.0 4.0 SE 0.00 29.313
03/14/2006 6:20 a 54.5 54.5 54.5 55.5 53.3 100 54.5 0.0 2.0 WNW 0.00 29.318
03/14/2006 6:30 a 56.0 56.0 56.0 56.2 55.5 100 56.0 1.0 6.0 S 0.00 29.334
03/14/2006 6:40 a 56.5 56.5 56.5 56.8 56.2 88 53.0 1.0 3.0 W 0.01 29.327
03/14/2006 6:50 a 56.9 56.9 56.9 57.0 56.8 81 51.1 1.0 8.0 ESE 0.00 29.333
03/14/2006 7:00 a 57.0 57.0 57.0 57.1 57.0 74 48.8 1.0 4.0 SSE 0.00 29.328
03/14/2006 7:10 a 57.4 57.4 57.4 57.6 57.1 73 48.8 1.0 5.0 E 0.00 29.331
03/14/2006 7:20 a 57.4 57.4 57.4 57.5 57.4 72 48.5 0.0 3.0 ESE 0.00 29.325
03/14/2006 7:30 a 57.5 57.5 57.5 57.6 57.4 70 47.8 1.0 3.0 WNW 0.00 29.322
03/14/2006 7:40 a 57.9 57.9 57.9 58.0 57.6 70 48.2 0.0 3.0 WNW 0.00 29.343
03/14/2006 7:50 a 57.9 57.9 57.9 57.9 57.8 73 49.3 1.0 4.0 SE 0.01 29.341
03/14/2006 8:00 a 57.6 57.6 57.6 57.9 57.3 76 50.1 0.0 2.0 ESE 0.00 29.344
03/14/2006 8:10 a 57.0 57.0 57.0 57.3 56.7 73 48.4 1.0 7.0 WNW 0.00 29.357
03/14/2006 8:20 a 56.5 56.5 56.5 56.8 56.3 68 46.1 1.0 5.0 SE 0.00 29.350
03/14/2006 8:30 a 56.2 56.2 56.2 56.3 56.1 68 45.8 0.0 2.0 ESE 0.00 29.340
03/14/2006 8:40 a 56.2 56.2 56.2 56.2 56.2 69 46.2 0.0 3.0 ESE 0.00 29.336
03/14/2006 8:50 a 56.4 56.4 56.4 56.6 56.2 69 46.4 0.0 2.0 E 0.00 29.335
03/14/2006 9:00 a 56.7 56.7 56.7 56.8 56.6 69 46.7 0.0 3.0 W 0.00 29.343
03/14/2006 9:10 a 57.2 57.2 57.2 57.6 56.8 66 46.0 0.0 2.0 ESE 0.00 29.348
03/14/2006 9:20 a 58.2 58.2 58.2 58.6 57.6 64 46.1 0.0 3.0 SE 0.00 29.347
03/14/2006 9:30 a 58.8 58.8 58.8 59.0 58.6 60 45.0 1.0 6.0 SE 0.00 29.350
03/14/2006 9:40 a 59.3 59.3 59.3 59.7 59.0 56 43.6 3.0 10.0 E 0.00 29.353
03/14/2006 9:50 a 59.6 59.6 57.9 59.8 59.3 45 38.3 5.0 16.0 E 0.00 29.365
03/14/2006 10:00 a 59.1 59.1 59.1 59.4 58.6 45 37.8 4.0 14.0 E 0.00 29.371
03/14/2006 10:10 a 58.5 58.5 58.5 58.7 58.3 44 36.7 4.0 12.0 E 0.00 29.378
03/14/2006 10:20 a 58.0 58.0 58.0 58.4 57.6 42 35.1 4.0 16.0 E 0.00 29.377
03/14/2006 10:30 a 57.2 57.2 55.3 57.6 56.9 42 34.3 5.0 15.0 E 0.00 29.383
03/14/2006 10:40 a 56.8 56.8 54.9 57.0 56.7 41 33.4 5.0 22.0 ESE 0.00 29.380
03/14/2006 10:50 a 56.9 56.9 56.9 57.1 56.8 44 35.2 4.0 14.0 E 0.00 29.383
03/14/2006 11:00 a 57.3 57.3 57.3 57.4 57.1 41 33.8 4.0 14.0 ESE 0.00 29.384
03/14/2006 11:10 a 57.4 57.4 55.5 57.5 57.2 39 32.7 5.0 19.0 ESE 0.00 29.396
03/14/2006 11:20 a 56.9 56.9 55.0 57.3 56.6 41 33.5 5.0 19.0 E 0.00 29.396
03/14/2006 11:30 a 56.6 56.6 56.6 56.7 56.5 39 32.0 4.0 13.0 E 0.00 29.389
03/14/2006 11:40 a 57.0 57.0 57.0 57.4 56.5 37 31.0 3.0 9.0 E 0.00 29.394
03/14/2006 11:50 a 57.4 57.4 57.4 57.5 57.4 37 31.4 3.0 9.0 E 0.00 29.392
03/14/2006 12:00 p 56.5 56.5 53.3 57.4 55.7 38 31.2 6.0 21.0 E 0.00 29.397
03/14/2006 12:10 p 55.7 55.7 53.7 55.8 55.7 37 29.8 5.0 14.0 E 0.00 29.395
03/14/2006 12:20 p 55.7 55.7 53.7 55.9 55.6 36 29.2 5.0 21.0 E 0.00 29.400
03/14/2006 12:30 p 55.9 55.9 54.0 56.0 55.7 36 29.4 5.0 16.0 E 0.00 29.401
03/14/2006 12:40 p 55.4 55.4 55.4 55.7 55.2 39 30.9 4.0 14.0 E 0.00 29.394
03/14/2006 12:50 p 55.5 55.5 55.5 55.7 55.3 36 29.0 3.0 12.0 E 0.00 29.391
03/14/2006 1:00 p 55.4 55.4 53.4 55.7 55.2 34 27.5 5.0 18.0 E 0.00 29.389
03/14/2006 1:10 p 55.3 55.3 53.3 55.7 55.0 33 26.7 5.0 18.0 E 0.00 29.397
03/14/2006 1:20 p 55.3 55.3 55.3 55.7 55.0 34 27.4 4.0 22.0 E 0.00 29.397
03/14/2006 1:30 p 55.1 55.1 53.1 55.2 55.0 33 26.5 5.0 15.0 ESE 0.00 29.394
03/14/2006 1:40 p 55.2 55.2 55.2 55.6 55.0 33 26.6 4.0 12.0 E 0.00 29.390
03/14/2006 1:50 p 55.7 55.7 55.7 55.8 55.5 32 26.3 4.0 13.0 ESE 0.00 29.391
03/14/2006 2:00 p 55.4 55.4 53.4 55.7 55.0 32 26.1 5.0 15.0 E 0.00 29.401
03/14/2006 2:10 p 54.5 54.5 52.5 55.0 54.4 34 26.7 5.0 16.0 E 0.00 29.405
03/14/2006 2:20 p 55.0 55.0 55.0 55.3 54.5 33 26.4 3.0 14.0 E 0.00 29.410
03/14/2006 2:30 p 55.1 55.1 55.1 55.3 54.8 33 26.5 4.0 11.0 E 0.00 29.418
03/14/2006 2:40 p 54.3 54.3 50.9 54.9 53.6 32 25.1 6.0 18.0 ESE 0.00 29.417
03/14/2006 2:50 p 53.2 53.2 49.7 53.6 53.0 33 24.9 6.0 16.0 E 0.00 29.422
03/14/2006 3:00 p 53.0 53.0 50.9 53.2 53.0 33 24.7 5.0 19.0 E 0.00 29.422
03/14/2006 3:10 p 53.2 53.2 53.2 53.4 53.0 33 24.9 4.0 19.0 E 0.00 29.425
03/14/2006 3:20 p 52.8 52.8 52.8 53.0 52.4 34 25.2 4.0 11.0 E 0.00 29.426
03/14/2006 3:30 p 52.1 52.1 52.1 52.4 51.9 34 24.6 4.0 12.0 E 0.00 29.427
03/14/2006 3:40 p 51.8 51.8 51.8 51.9 51.7 34 24.3 3.0 11.0 ESE 0.00 29.425
03/14/2006 3:50 p 51.8 51.8 51.8 51.8 51.6 35 25.0 4.0 11.0 E 0.00 29.431
03/14/2006 4:00 p 51.3 51.3 49.1 51.6 50.9 37 25.9 5.0 18.0 E 0.00 29.436
03/14/2006 4:10 p 50.7 50.7 50.7 51.0 50.5 36 24.7 4.0 16.0 E 0.00 29.438
03/14/2006 4:20 p 50.4 50.4 50.4 50.5 50.3 39 26.4 4.0 13.0 E 0.00 29.453
03/14/2006 4:30 p 50.1 50.1 50.1 50.3 49.8 40 26.7 4.0 16.0 E 0.00 29.454
03/14/2006 4:40 p 49.3 49.3 49.3 49.8 48.7 36 23.5 4.0 15.0 E 0.00 29.469
03/14/2006 4:50 p 48.3 48.3 48.3 48.7 47.9 38 23.9 3.0 11.0 E 0.00 29.474
03/14/2006 5:00 p 47.7 47.7 47.7 47.9 47.6 38 23.4 3.0 10.0 E 0.00 29.482
03/14/2006 5:10 p 47.5 47.5 47.5 47.6 47.3 37 22.5 4.0 13.0 E 0.00 29.484
03/14/2006 5:20 p 47.1 47.1 47.1 47.3 46.9 39 23.4 4.0 13.0 E 0.00 29.489
03/14/2006 5:30 p 46.6 46.6 44.1 46.8 46.4 38 22.4 5.0 15.0 E 0.00 29.491
03/14/2006 5:40 p 46.2 46.2 46.2 46.4 46.0 41 23.8 4.0 16.0 E 0.00 29.497
03/14/2006 5:50 p 45.7 45.7 45.7 46.0 45.4 43 24.5 4.0 11.0 E 0.00 29.509
03/14/2006 6:00 p 45.1 45.1 45.1 45.4 44.8 43 24.0 4.0 11.0 E 0.00 29.514
03/14/2006 6:10 p 44.6 44.6 44.6 44.8 44.3 44 24.1 3.0 11.0 E 0.00 29.518
03/14/2006 6:20 p 44.2 44.2 44.2 44.3 44.0 44 23.7 3.0 9.0 E 0.00 29.520
03/14/2006 6:30 p 43.8 43.8 43.8 44.0 43.7 45 23.9 3.0 10.0 E 0.00 29.526
03/14/2006 6:40 p 43.5 43.5 43.5 43.7 43.4 45 23.6 3.0 18.0 E 0.00 29.532
03/14/2006 6:50 p 43.3 43.3 43.3 43.4 43.1 45 23.4 3.0 11.0 E 0.00 29.537
03/14/2006 7:00 p 43.0 43.0 43.0 43.2 42.9 45 23.1 3.0 10.0 E 0.00 29.548
03/14/2006 7:10 p 42.8 42.8 42.8 42.9 42.7 46 23.5 3.0 10.0 ESE 0.00 29.552
03/14/2006 7:20 p 42.6 42.6 42.6 42.7 42.4 47 23.8 2.0 6.0 ESE 0.00 29.557
03/14/2006 7:30 p 42.3 42.3 42.3 42.4 42.1 48 24.0 3.0 14.0 E 0.00 29.562
03/14/2006 7:40 p 42.0 42.0 42.0 42.2 41.8 48 23.7 2.0 9.0 E 0.00 29.559
03/14/2006 7:50 p 41.8 41.8 41.8 41.8 41.7 48 23.6 4.0 12.0 E 0.00 29.571
03/14/2006 8:00 p 41.6 41.6 41.6 41.7 41.5 49 23.9 4.0 13.0 E 0.00 29.570
03/14/2006 8:10 p 41.4 41.4 41.4 41.5 41.2 50 24.2 3.0 14.0 E 0.00 29.577
03/14/2006 8:20 p 41.0 41.0 41.0 41.2 40.9 50 23.8 3.0 8.0 E 0.00 29.581
03/14/2006 8:30 p 40.9 40.9 40.9 41.0 40.8 50 23.7 2.0 10.0 E 0.00 29.584
03/14/2006 8:40 p 40.8 40.8 40.8 40.8 40.7 50 23.6 2.0 7.0 E 0.00 29.585
03/14/2006 8:50 p 40.8 40.8 40.8 40.8 40.7 50 23.6 2.0 7.0 ENE 0.00 29.589
03/14/2006 9:00 p 40.6 40.6 40.6 40.7 40.4 48 22.5 2.0 7.0 E 0.00 29.590
03/14/2006 9:10 p 40.5 40.5 40.5 40.5 40.4 48 22.4 2.0 10.0 ESE 0.00 29.595
03/14/2006 9:20 p 40.6 40.6 40.6 40.6 40.5 48 22.5 3.0 15.0 E 0.00 29.590
03/14/2006 9:30 p 40.4 40.4 40.4 40.6 40.2 49 22.8 2.0 15.0 E 0.00 29.593
03/14/2006 9:40 p 39.9 39.9 39.9 40.2 39.7 50 22.8 3.0 9.0 ESE 0.00 29.598
03/14/2006 9:50 p 39.6 39.6 39.6 39.8 39.4 51 23.0 2.0 9.0 E 0.00 29.598
03/14/2006 10:00 p 39.3 39.3 39.3 39.4 39.2 51 22.7 3.0 12.0 E 0.00 29.602
03/14/2006 10:10 p 39.1 39.1 39.1 39.3 39.1 51 22.5 3.0 10.0 E 0.00 29.601
03/14/2006 10:20 p 39.0 39.0 39.0 39.1 38.9 51 22.4 1.0 6.0 E 0.00 29.600
03/14/2006 10:30 p 38.9 38.9 38.9 38.9 38.9 51 22.3 2.0 9.0 E 0.00 29.598
03/14/2006 10:40 p 38.8 38.8 38.8 38.9 38.7 51 22.2 2.0 8.0 E 0.00 29.597
03/14/2006 10:50 p 38.6 38.6 38.6 38.8 38.5 51 22.1 1.0 6.0 NE 0.00 29.597
03/14/2006 11:00 p 38.5 38.5 38.5 38.6 38.5 51 22.0 2.0 6.0 E 0.00 29.594
03/14/2006 11:10 p 38.5 38.5 38.5 38.6 38.5 52 22.4 2.0 5.0 ESE 0.00 29.597
03/14/2006 11:20 p 38.5 38.5 38.5 38.5 38.4 51 22.0 1.0 6.0 E 0.00 29.586
03/14/2006 11:30 p 38.5 38.5 38.5 38.5 38.4 51 22.0 1.0 9.0 E 0.00 29.589
03/14/2006 11:40 p 38.5 38.5 38.5 38.6 38.5 52 22.4 2.0 7.0 E 0.00 29.586
03/14/2006 11:50 p 38.6 38.6 38.6 38.6 38.5 53 23.0 1.0 5.0 E 0.00 29.585
03/15/2006 12:00 a 38.5 38.5 38.5 38.6 38.4 53 22.9 1.0 5.0 E 0.00 29.585
03/15/2006 12:10 a 38.3 38.3 38.3 38.4 38.3 55 23.6 1.0 3.0 SSW 0.00 29.582
03/15/2006 12:20 a 38.2 38.2 38.2 38.3 38.1 55 23.5 1.0 6.0 S 0.00 29.581
03/15/2006 12:30 a 38.2 38.2 38.2 38.3 38.1 54 23.0 1.0 3.0 E 0.00 29.583
03/15/2006 12:40 a 38.3 38.3 38.3 38.5 38.2 53 22.7 2.0 14.0 E 0.00 29.582
03/15/2006 12:50 a 38.8 38.8 38.8 38.9 38.5 53 23.1 2.0 7.0 E 0.00 29.584
03/15/2006 1:00 a 39.0 39.0 39.0 39.0 38.9 54 23.8 1.0 5.0 E 0.00 29.583
03/15/2006 1:10 a 38.7 38.7 38.7 38.9 38.5 55 23.9 1.0 3.0 ESE 0.00 29.581
03/15/2006 1:20 a 38.3 38.3 38.3 38.5 38.1 57 24.4 0.0 3.0 SE 0.00 29.583
03/15/2006 1:30 a 38.1 38.1 38.1 38.2 38.0 57 24.2 1.0 5.0 E 0.00 29.580
03/15/2006 1:40 a 38.3 38.3 38.3 38.3 38.2 56 24.0 1.0 6.0 E 0.00 29.579
03/15/2006 1:50 a 38.4 38.4 38.4 38.5 38.3 56 24.1 2.0 6.0 E 0.00 29.575
03/15/2006 2:00 a 38.6 38.6 38.6 38.7 38.5 56 24.3 2.0 7.0 ESE 0.00 29.575
03/15/2006 2:10 a 38.7 38.7 38.7 38.8 38.7 57 24.8 2.0 8.0 SE 0.00 29.578
03/15/2006 2:20 a 38.8 38.8 38.8 38.8 38.7 57 24.9 2.0 8.0 E 0.00 29.578
03/15/2006 2:30 a 38.7 38.7 38.7 38.7 38.7 58 25.2 3.0 9.0 E 0.00 29.580
03/15/2006 2:40 a 38.5 38.5 38.5